<?xml version="1.0" encoding="UTF-8" standalone="no" ?>
<gpx xmlns="http://www.topografix.com/GPX/1/1" xmlns:xsi="http://www.w3.org/2001/XMLSchema-instance" xsi:schemaLocation="http://www.topografix.com/GPX/1/1 http://www.topografix.com/GPX/1/1/gpx.xsd" version="1.1" creator="VisuGPX - https://www.visugpx.com">
  <metadata>
    <name>83-L-Ramatuelle</name>
    <desc><![CDATA[83-L-Ramatuelle : cap Camarat
2024-06-17]]></desc>
  </metadata>
  <trk>
    <name><![CDATA[2024-06-17-L-ramatuelle]]></name>
    <extensions>
      <line xmlns="http://www.topografix.com/GPX/gpx_style/0/2">
        <width>4</width>
      </line>
    </extensions>
    <trkseg>
      <trkpt lat="43.20912" lon="6.66461">
        <ele>-56.3</ele>
        <time>2024-06-17T07:16:25.000Z</time>
      </trkpt>
      <trkpt lat="43.20912" lon="6.66459">
        <ele>-26</ele>
        <time>2024-06-17T07:16:29.000Z</time>
      </trkpt>
      <trkpt lat="43.20913" lon="6.66447">
        <ele>11.2</ele>
        <time>2024-06-17T07:17:25.000Z</time>
      </trkpt>
      <trkpt lat="43.20919" lon="6.66456">
        <ele>12.9</ele>
        <time>2024-06-17T07:24:29.000Z</time>
      </trkpt>
      <trkpt lat="43.20912" lon="6.66449">
        <ele>12.2</ele>
        <time>2024-06-17T07:26:37.000Z</time>
      </trkpt>
      <trkpt lat="43.20921" lon="6.66451">
        <ele>11.9</ele>
        <time>2024-06-17T07:28:04.000Z</time>
      </trkpt>
      <trkpt lat="43.20922" lon="6.66439">
        <ele>11.5</ele>
        <time>2024-06-17T07:28:33.000Z</time>
      </trkpt>
      <trkpt lat="43.20913" lon="6.66434">
        <ele>11.7</ele>
        <time>2024-06-17T07:28:56.000Z</time>
      </trkpt>
      <trkpt lat="43.20904" lon="6.66434">
        <ele>12.5</ele>
        <time>2024-06-17T07:29:07.000Z</time>
      </trkpt>
      <trkpt lat="43.20895" lon="6.66435">
        <ele>13.4</ele>
        <time>2024-06-17T07:29:17.000Z</time>
      </trkpt>
      <trkpt lat="43.20885" lon="6.66439">
        <ele>14.7</ele>
        <time>2024-06-17T07:29:29.000Z</time>
      </trkpt>
      <trkpt lat="43.20875" lon="6.6644">
        <ele>16</ele>
        <time>2024-06-17T07:29:39.000Z</time>
      </trkpt>
      <trkpt lat="43.20865" lon="6.66444">
        <ele>17.4</ele>
        <time>2024-06-17T07:29:49.000Z</time>
      </trkpt>
      <trkpt lat="43.20856" lon="6.66446">
        <ele>19</ele>
        <time>2024-06-17T07:30:01.000Z</time>
      </trkpt>
      <trkpt lat="43.20848" lon="6.66451">
        <ele>20.1</ele>
        <time>2024-06-17T07:30:12.000Z</time>
      </trkpt>
      <trkpt lat="43.20838" lon="6.66454">
        <ele>20.7</ele>
        <time>2024-06-17T07:30:46.000Z</time>
      </trkpt>
      <trkpt lat="43.20832" lon="6.66463">
        <ele>21.4</ele>
        <time>2024-06-17T07:30:56.000Z</time>
      </trkpt>
      <trkpt lat="43.20826" lon="6.66473">
        <ele>22.3</ele>
        <time>2024-06-17T07:31:04.000Z</time>
      </trkpt>
      <trkpt lat="43.2082" lon="6.66484">
        <ele>23.5</ele>
        <time>2024-06-17T07:31:13.000Z</time>
      </trkpt>
      <trkpt lat="43.20813" lon="6.66492">
        <ele>24.6</ele>
        <time>2024-06-17T07:31:23.000Z</time>
      </trkpt>
      <trkpt lat="43.20807" lon="6.66501">
        <ele>25.4</ele>
        <time>2024-06-17T07:31:32.000Z</time>
      </trkpt>
      <trkpt lat="43.208" lon="6.66511">
        <ele>26</ele>
        <time>2024-06-17T07:31:40.000Z</time>
      </trkpt>
      <trkpt lat="43.20792" lon="6.66521">
        <ele>26.7</ele>
        <time>2024-06-17T07:31:49.000Z</time>
      </trkpt>
      <trkpt lat="43.20785" lon="6.6653">
        <ele>26.9</ele>
        <time>2024-06-17T07:31:58.000Z</time>
      </trkpt>
      <trkpt lat="43.20778" lon="6.66538">
        <ele>27.2</ele>
        <time>2024-06-17T07:32:05.000Z</time>
      </trkpt>
      <trkpt lat="43.20771" lon="6.66547">
        <ele>27.6</ele>
        <time>2024-06-17T07:32:29.000Z</time>
      </trkpt>
      <trkpt lat="43.20764" lon="6.66557">
        <ele>28</ele>
        <time>2024-06-17T07:32:37.000Z</time>
      </trkpt>
      <trkpt lat="43.20758" lon="6.66566">
        <ele>28.2</ele>
        <time>2024-06-17T07:32:45.000Z</time>
      </trkpt>
      <trkpt lat="43.20751" lon="6.66573">
        <ele>27.7</ele>
        <time>2024-06-17T07:32:53.000Z</time>
      </trkpt>
      <trkpt lat="43.20744" lon="6.66582">
        <ele>26.6</ele>
        <time>2024-06-17T07:33:01.000Z</time>
      </trkpt>
      <trkpt lat="43.20737" lon="6.66591">
        <ele>25.4</ele>
        <time>2024-06-17T07:33:09.000Z</time>
      </trkpt>
      <trkpt lat="43.20729" lon="6.66596">
        <ele>24.3</ele>
        <time>2024-06-17T07:33:17.000Z</time>
      </trkpt>
      <trkpt lat="43.20721" lon="6.66603">
        <ele>23.8</ele>
        <time>2024-06-17T07:33:24.000Z</time>
      </trkpt>
      <trkpt lat="43.20718" lon="6.66616">
        <ele>23.4</ele>
        <time>2024-06-17T07:33:31.000Z</time>
      </trkpt>
      <trkpt lat="43.20717" lon="6.66629">
        <ele>23.9</ele>
        <time>2024-06-17T07:33:39.000Z</time>
      </trkpt>
      <trkpt lat="43.20716" lon="6.66642">
        <ele>24.9</ele>
        <time>2024-06-17T07:33:48.000Z</time>
      </trkpt>
      <trkpt lat="43.20714" lon="6.66655">
        <ele>26</ele>
        <time>2024-06-17T07:33:57.000Z</time>
      </trkpt>
      <trkpt lat="43.20713" lon="6.66668">
        <ele>26.5</ele>
        <time>2024-06-17T07:34:03.000Z</time>
      </trkpt>
      <trkpt lat="43.20711" lon="6.6668">
        <ele>27</ele>
        <time>2024-06-17T07:34:10.000Z</time>
      </trkpt>
      <trkpt lat="43.20708" lon="6.66694">
        <ele>27.4</ele>
        <time>2024-06-17T07:34:18.000Z</time>
      </trkpt>
      <trkpt lat="43.20707" lon="6.66707">
        <ele>27.7</ele>
        <time>2024-06-17T07:34:26.000Z</time>
      </trkpt>
      <trkpt lat="43.20707" lon="6.6672">
        <ele>27.1</ele>
        <time>2024-06-17T07:34:35.000Z</time>
      </trkpt>
      <trkpt lat="43.20705" lon="6.66733">
        <ele>26</ele>
        <time>2024-06-17T07:34:45.000Z</time>
      </trkpt>
      <trkpt lat="43.20705" lon="6.66747">
        <ele>24</ele>
        <time>2024-06-17T07:34:57.000Z</time>
      </trkpt>
      <trkpt lat="43.20703" lon="6.6676">
        <ele>22.2</ele>
        <time>2024-06-17T07:35:06.000Z</time>
      </trkpt>
      <trkpt lat="43.20704" lon="6.66774">
        <ele>20.3</ele>
        <time>2024-06-17T07:35:16.000Z</time>
      </trkpt>
      <trkpt lat="43.20702" lon="6.66786">
        <ele>19</ele>
        <time>2024-06-17T07:35:25.000Z</time>
      </trkpt>
      <trkpt lat="43.20696" lon="6.66797">
        <ele>17.3</ele>
        <time>2024-06-17T07:35:34.000Z</time>
      </trkpt>
      <trkpt lat="43.2069" lon="6.66807">
        <ele>15.8</ele>
        <time>2024-06-17T07:35:44.000Z</time>
      </trkpt>
      <trkpt lat="43.20684" lon="6.66816">
        <ele>13.8</ele>
        <time>2024-06-17T07:35:55.000Z</time>
      </trkpt>
      <trkpt lat="43.20677" lon="6.66825">
        <ele>12.5</ele>
        <time>2024-06-17T07:36:05.000Z</time>
      </trkpt>
      <trkpt lat="43.20671" lon="6.66835">
        <ele>11.3</ele>
        <time>2024-06-17T07:36:15.000Z</time>
      </trkpt>
      <trkpt lat="43.20664" lon="6.66844">
        <ele>10.5</ele>
        <time>2024-06-17T07:36:24.000Z</time>
      </trkpt>
      <trkpt lat="43.20658" lon="6.66854">
        <ele>9.6</ele>
        <time>2024-06-17T07:36:34.000Z</time>
      </trkpt>
      <trkpt lat="43.20652" lon="6.66865">
        <ele>8.4</ele>
        <time>2024-06-17T07:36:44.000Z</time>
      </trkpt>
      <trkpt lat="43.20645" lon="6.66874">
        <ele>7.2</ele>
        <time>2024-06-17T07:36:56.000Z</time>
      </trkpt>
      <trkpt lat="43.20639" lon="6.66884">
        <ele>6.3</ele>
        <time>2024-06-17T07:37:04.000Z</time>
      </trkpt>
      <trkpt lat="43.20636" lon="6.66896">
        <ele>5.3</ele>
        <time>2024-06-17T07:37:14.000Z</time>
      </trkpt>
      <trkpt lat="43.20638" lon="6.66909">
        <ele>3.6</ele>
        <time>2024-06-17T07:37:24.000Z</time>
      </trkpt>
      <trkpt lat="43.2064" lon="6.66921">
        <ele>1.6</ele>
        <time>2024-06-17T07:37:37.000Z</time>
      </trkpt>
      <trkpt lat="43.20631" lon="6.66919">
        <ele>1.2</ele>
        <time>2024-06-17T07:38:27.000Z</time>
      </trkpt>
      <trkpt lat="43.20622" lon="6.66921">
        <ele>1.5</ele>
        <time>2024-06-17T07:38:48.000Z</time>
      </trkpt>
      <trkpt lat="43.20616" lon="6.66931">
        <ele>1.3</ele>
        <time>2024-06-17T07:38:59.000Z</time>
      </trkpt>
      <trkpt lat="43.20613" lon="6.66944">
        <ele>2</ele>
        <time>2024-06-17T07:39:49.000Z</time>
      </trkpt>
      <trkpt lat="43.2061" lon="6.66956">
        <ele>3.2</ele>
        <time>2024-06-17T07:40:19.000Z</time>
      </trkpt>
      <trkpt lat="43.20601" lon="6.6696">
        <ele>3.5</ele>
        <time>2024-06-17T07:41:40.000Z</time>
      </trkpt>
      <trkpt lat="43.20595" lon="6.6697">
        <ele>3.1</ele>
        <time>2024-06-17T07:41:56.000Z</time>
      </trkpt>
      <trkpt lat="43.20593" lon="6.66983">
        <ele>1.7</ele>
        <time>2024-06-17T07:42:12.000Z</time>
      </trkpt>
      <trkpt lat="43.20587" lon="6.66993">
        <ele>1.6</ele>
        <time>2024-06-17T07:42:22.000Z</time>
      </trkpt>
      <trkpt lat="43.20577" lon="6.66996">
        <ele>2.7</ele>
        <time>2024-06-17T07:42:34.000Z</time>
      </trkpt>
      <trkpt lat="43.20572" lon="6.67007">
        <ele>4.2</ele>
        <time>2024-06-17T07:42:48.000Z</time>
      </trkpt>
      <trkpt lat="43.20565" lon="6.67014">
        <ele>6.8</ele>
        <time>2024-06-17T07:43:08.000Z</time>
      </trkpt>
      <trkpt lat="43.20562" lon="6.67027">
        <ele>8.6</ele>
        <time>2024-06-17T07:43:21.000Z</time>
      </trkpt>
      <trkpt lat="43.20557" lon="6.67037">
        <ele>9.9</ele>
        <time>2024-06-17T07:43:33.000Z</time>
      </trkpt>
      <trkpt lat="43.20551" lon="6.67047">
        <ele>10.1</ele>
        <time>2024-06-17T07:43:45.000Z</time>
      </trkpt>
      <trkpt lat="43.20549" lon="6.6706">
        <ele>10.5</ele>
        <time>2024-06-17T07:43:57.000Z</time>
      </trkpt>
      <trkpt lat="43.2055" lon="6.67073">
        <ele>11.1</ele>
        <time>2024-06-17T07:44:08.000Z</time>
      </trkpt>
      <trkpt lat="43.20554" lon="6.67085">
        <ele>12.1</ele>
        <time>2024-06-17T07:44:25.000Z</time>
      </trkpt>
      <trkpt lat="43.20552" lon="6.67097">
        <ele>15.3</ele>
        <time>2024-06-17T07:45:00.000Z</time>
      </trkpt>
      <trkpt lat="43.20552" lon="6.6711">
        <ele>16.8</ele>
        <time>2024-06-17T07:45:22.000Z</time>
      </trkpt>
      <trkpt lat="43.20547" lon="6.67121">
        <ele>19.3</ele>
        <time>2024-06-17T07:46:07.000Z</time>
      </trkpt>
      <trkpt lat="43.20544" lon="6.67133">
        <ele>19.1</ele>
        <time>2024-06-17T07:46:23.000Z</time>
      </trkpt>
      <trkpt lat="43.20544" lon="6.67145">
        <ele>18.1</ele>
        <time>2024-06-17T07:46:40.000Z</time>
      </trkpt>
      <trkpt lat="43.2054" lon="6.67157">
        <ele>16.8</ele>
        <time>2024-06-17T07:47:11.000Z</time>
      </trkpt>
      <trkpt lat="43.20537" lon="6.6717">
        <ele>14</ele>
        <time>2024-06-17T07:47:40.000Z</time>
      </trkpt>
      <trkpt lat="43.20534" lon="6.67181">
        <ele>12.9</ele>
        <time>2024-06-17T07:48:04.000Z</time>
      </trkpt>
      <trkpt lat="43.2053" lon="6.67192">
        <ele>10.4</ele>
        <time>2024-06-17T07:48:32.000Z</time>
      </trkpt>
      <trkpt lat="43.20527" lon="6.67204">
        <ele>8.5</ele>
        <time>2024-06-17T07:49:08.000Z</time>
      </trkpt>
      <trkpt lat="43.2052" lon="6.67213">
        <ele>10</ele>
        <time>2024-06-17T07:49:28.000Z</time>
      </trkpt>
      <trkpt lat="43.20511" lon="6.67219">
        <ele>12.1</ele>
        <time>2024-06-17T07:49:56.000Z</time>
      </trkpt>
      <trkpt lat="43.20505" lon="6.67227">
        <ele>11.9</ele>
        <time>2024-06-17T07:50:13.000Z</time>
      </trkpt>
      <trkpt lat="43.20497" lon="6.67235">
        <ele>11.3</ele>
        <time>2024-06-17T07:50:39.000Z</time>
      </trkpt>
      <trkpt lat="43.20489" lon="6.6724">
        <ele>11.3</ele>
        <time>2024-06-17T07:50:57.000Z</time>
      </trkpt>
      <trkpt lat="43.2048" lon="6.67244">
        <ele>11.2</ele>
        <time>2024-06-17T07:51:21.000Z</time>
      </trkpt>
      <trkpt lat="43.20472" lon="6.67249">
        <ele>14.5</ele>
        <time>2024-06-17T07:52:12.000Z</time>
      </trkpt>
      <trkpt lat="43.20468" lon="6.6726">
        <ele>15.7</ele>
        <time>2024-06-17T07:52:40.000Z</time>
      </trkpt>
      <trkpt lat="43.20463" lon="6.67271">
        <ele>17.7</ele>
        <time>2024-06-17T07:53:00.000Z</time>
      </trkpt>
      <trkpt lat="43.2046" lon="6.67283">
        <ele>18.2</ele>
        <time>2024-06-17T07:53:16.000Z</time>
      </trkpt>
      <trkpt lat="43.2046" lon="6.67296">
        <ele>19.9</ele>
        <time>2024-06-17T07:53:31.000Z</time>
      </trkpt>
      <trkpt lat="43.20459" lon="6.67309">
        <ele>23</ele>
        <time>2024-06-17T07:53:53.000Z</time>
      </trkpt>
      <trkpt lat="43.20462" lon="6.67321">
        <ele>26.2</ele>
        <time>2024-06-17T07:54:49.000Z</time>
      </trkpt>
      <trkpt lat="43.20456" lon="6.67332">
        <ele>29.9</ele>
        <time>2024-06-17T07:56:17.000Z</time>
      </trkpt>
      <trkpt lat="43.20448" lon="6.67334">
        <ele>34</ele>
        <time>2024-06-17T07:57:03.000Z</time>
      </trkpt>
      <trkpt lat="43.20441" lon="6.67343">
        <ele>37.8</ele>
        <time>2024-06-17T07:57:54.000Z</time>
      </trkpt>
      <trkpt lat="43.20437" lon="6.67354">
        <ele>36.2</ele>
        <time>2024-06-17T07:58:36.000Z</time>
      </trkpt>
      <trkpt lat="43.20436" lon="6.67366">
        <ele>33.7</ele>
        <time>2024-06-17T07:58:59.000Z</time>
      </trkpt>
      <trkpt lat="43.20436" lon="6.67379">
        <ele>32.6</ele>
        <time>2024-06-17T07:59:16.000Z</time>
      </trkpt>
      <trkpt lat="43.20435" lon="6.67393">
        <ele>31.4</ele>
        <time>2024-06-17T07:59:28.000Z</time>
      </trkpt>
      <trkpt lat="43.20429" lon="6.67404">
        <ele>32.1</ele>
        <time>2024-06-17T07:59:42.000Z</time>
      </trkpt>
      <trkpt lat="43.20422" lon="6.67413">
        <ele>32.6</ele>
        <time>2024-06-17T07:59:54.000Z</time>
      </trkpt>
      <trkpt lat="43.20418" lon="6.67425">
        <ele>33.2</ele>
        <time>2024-06-17T08:00:06.000Z</time>
      </trkpt>
      <trkpt lat="43.20416" lon="6.67438">
        <ele>33.4</ele>
        <time>2024-06-17T08:00:18.000Z</time>
      </trkpt>
      <trkpt lat="43.20409" lon="6.67447">
        <ele>34.7</ele>
        <time>2024-06-17T08:00:53.000Z</time>
      </trkpt>
      <trkpt lat="43.20401" lon="6.67455">
        <ele>33.2</ele>
        <time>2024-06-17T08:01:10.000Z</time>
      </trkpt>
      <trkpt lat="43.20395" lon="6.67465">
        <ele>31.2</ele>
        <time>2024-06-17T08:01:25.000Z</time>
      </trkpt>
      <trkpt lat="43.20388" lon="6.67473">
        <ele>29.8</ele>
        <time>2024-06-17T08:01:35.000Z</time>
      </trkpt>
      <trkpt lat="43.20381" lon="6.67481">
        <ele>29.1</ele>
        <time>2024-06-17T08:01:47.000Z</time>
      </trkpt>
      <trkpt lat="43.20375" lon="6.67493">
        <ele>28.3</ele>
        <time>2024-06-17T08:01:58.000Z</time>
      </trkpt>
      <trkpt lat="43.20369" lon="6.67503">
        <ele>27.5</ele>
        <time>2024-06-17T08:02:10.000Z</time>
      </trkpt>
      <trkpt lat="43.20367" lon="6.67516">
        <ele>27.4</ele>
        <time>2024-06-17T08:02:21.000Z</time>
      </trkpt>
      <trkpt lat="43.20364" lon="6.67529">
        <ele>27.5</ele>
        <time>2024-06-17T08:02:34.000Z</time>
      </trkpt>
      <trkpt lat="43.20363" lon="6.67542">
        <ele>26.7</ele>
        <time>2024-06-17T08:02:46.000Z</time>
      </trkpt>
      <trkpt lat="43.2036" lon="6.67554">
        <ele>25.2</ele>
        <time>2024-06-17T08:02:59.000Z</time>
      </trkpt>
      <trkpt lat="43.20358" lon="6.67541">
        <ele>28.6</ele>
        <time>2024-06-17T08:03:49.000Z</time>
      </trkpt>
      <trkpt lat="43.20361" lon="6.67529">
        <ele>31</ele>
        <time>2024-06-17T08:04:07.000Z</time>
      </trkpt>
      <trkpt lat="43.20358" lon="6.67517">
        <ele>34</ele>
        <time>2024-06-17T08:04:25.000Z</time>
      </trkpt>
      <trkpt lat="43.20354" lon="6.67506">
        <ele>36</ele>
        <time>2024-06-17T08:04:38.000Z</time>
      </trkpt>
      <trkpt lat="43.20352" lon="6.67493">
        <ele>39.6</ele>
        <time>2024-06-17T08:05:02.000Z</time>
      </trkpt>
      <trkpt lat="43.20354" lon="6.67481">
        <ele>41.9</ele>
        <time>2024-06-17T08:05:16.000Z</time>
      </trkpt>
      <trkpt lat="43.20358" lon="6.6747">
        <ele>43.6</ele>
        <time>2024-06-17T08:05:31.000Z</time>
      </trkpt>
      <trkpt lat="43.2036" lon="6.67458">
        <ele>45.5</ele>
        <time>2024-06-17T08:05:55.000Z</time>
      </trkpt>
      <trkpt lat="43.20365" lon="6.67446">
        <ele>47.4</ele>
        <time>2024-06-17T08:06:14.000Z</time>
      </trkpt>
      <trkpt lat="43.20368" lon="6.67433">
        <ele>48.8</ele>
        <time>2024-06-17T08:08:25.000Z</time>
      </trkpt>
      <trkpt lat="43.20371" lon="6.67421">
        <ele>52.3</ele>
        <time>2024-06-17T08:08:52.000Z</time>
      </trkpt>
      <trkpt lat="43.20373" lon="6.67409">
        <ele>54.4</ele>
        <time>2024-06-17T08:09:09.000Z</time>
      </trkpt>
      <trkpt lat="43.20377" lon="6.67397">
        <ele>56.9</ele>
        <time>2024-06-17T08:09:28.000Z</time>
      </trkpt>
      <trkpt lat="43.2038" lon="6.67385">
        <ele>58.5</ele>
        <time>2024-06-17T08:09:42.000Z</time>
      </trkpt>
      <trkpt lat="43.20382" lon="6.67372">
        <ele>59.8</ele>
        <time>2024-06-17T08:09:54.000Z</time>
      </trkpt>
      <trkpt lat="43.20388" lon="6.67362">
        <ele>61.1</ele>
        <time>2024-06-17T08:10:17.000Z</time>
      </trkpt>
      <trkpt lat="43.20379" lon="6.6736">
        <ele>61.1</ele>
        <time>2024-06-17T08:12:50.000Z</time>
      </trkpt>
      <trkpt lat="43.20371" lon="6.67365">
        <ele>61.3</ele>
        <time>2024-06-17T08:16:16.000Z</time>
      </trkpt>
      <trkpt lat="43.20362" lon="6.67368">
        <ele>63.7</ele>
        <time>2024-06-17T08:21:14.000Z</time>
      </trkpt>
      <trkpt lat="43.20355" lon="6.67377">
        <ele>65.6</ele>
        <time>2024-06-17T08:21:30.000Z</time>
      </trkpt>
      <trkpt lat="43.20347" lon="6.67373">
        <ele>68.3</ele>
        <time>2024-06-17T08:21:55.000Z</time>
      </trkpt>
      <trkpt lat="43.20347" lon="6.6736">
        <ele>69.5</ele>
        <time>2024-06-17T08:22:10.000Z</time>
      </trkpt>
      <trkpt lat="43.20343" lon="6.67349">
        <ele>70.5</ele>
        <time>2024-06-17T08:22:20.000Z</time>
      </trkpt>
      <trkpt lat="43.20339" lon="6.67337">
        <ele>70.8</ele>
        <time>2024-06-17T08:22:32.000Z</time>
      </trkpt>
      <trkpt lat="43.20341" lon="6.67324">
        <ele>70.9</ele>
        <time>2024-06-17T08:22:47.000Z</time>
      </trkpt>
      <trkpt lat="43.20339" lon="6.67312">
        <ele>72</ele>
        <time>2024-06-17T08:22:58.000Z</time>
      </trkpt>
      <trkpt lat="43.20339" lon="6.67299">
        <ele>73.5</ele>
        <time>2024-06-17T08:23:10.000Z</time>
      </trkpt>
      <trkpt lat="43.20334" lon="6.67288">
        <ele>74.4</ele>
        <time>2024-06-17T08:23:23.000Z</time>
      </trkpt>
      <trkpt lat="43.20324" lon="6.67285">
        <ele>75.4</ele>
        <time>2024-06-17T08:23:34.000Z</time>
      </trkpt>
      <trkpt lat="43.20315" lon="6.67289">
        <ele>77.3</ele>
        <time>2024-06-17T08:23:48.000Z</time>
      </trkpt>
      <trkpt lat="43.20309" lon="6.67299">
        <ele>79</ele>
        <time>2024-06-17T08:24:00.000Z</time>
      </trkpt>
      <trkpt lat="43.20303" lon="6.6731">
        <ele>80.4</ele>
        <time>2024-06-17T08:24:12.000Z</time>
      </trkpt>
      <trkpt lat="43.20295" lon="6.67317">
        <ele>81.5</ele>
        <time>2024-06-17T08:24:25.000Z</time>
      </trkpt>
      <trkpt lat="43.20286" lon="6.67319">
        <ele>82.8</ele>
        <time>2024-06-17T08:24:39.000Z</time>
      </trkpt>
      <trkpt lat="43.20278" lon="6.67324">
        <ele>84.2</ele>
        <time>2024-06-17T08:25:03.000Z</time>
      </trkpt>
      <trkpt lat="43.20269" lon="6.67325">
        <ele>84.6</ele>
        <time>2024-06-17T08:25:13.000Z</time>
      </trkpt>
      <trkpt lat="43.20262" lon="6.67318">
        <ele>84.7</ele>
        <time>2024-06-17T08:25:23.000Z</time>
      </trkpt>
      <trkpt lat="43.20254" lon="6.6731">
        <ele>84.8</ele>
        <time>2024-06-17T08:25:34.000Z</time>
      </trkpt>
      <trkpt lat="43.20246" lon="6.67303">
        <ele>86.2</ele>
        <time>2024-06-17T08:25:47.000Z</time>
      </trkpt>
      <trkpt lat="43.20238" lon="6.67295">
        <ele>87.4</ele>
        <time>2024-06-17T08:25:58.000Z</time>
      </trkpt>
      <trkpt lat="43.20231" lon="6.67288">
        <ele>87.7</ele>
        <time>2024-06-17T08:26:08.000Z</time>
      </trkpt>
      <trkpt lat="43.20222" lon="6.67283">
        <ele>88</ele>
        <time>2024-06-17T08:26:22.000Z</time>
      </trkpt>
      <trkpt lat="43.20214" lon="6.6728">
        <ele>90.1</ele>
        <time>2024-06-17T08:28:09.000Z</time>
      </trkpt>
      <trkpt lat="43.20204" lon="6.67282">
        <ele>90.4</ele>
        <time>2024-06-17T08:29:12.000Z</time>
      </trkpt>
      <trkpt lat="43.20196" lon="6.67278">
        <ele>92.1</ele>
        <time>2024-06-17T08:29:27.000Z</time>
      </trkpt>
      <trkpt lat="43.20187" lon="6.67282">
        <ele>94.3</ele>
        <time>2024-06-17T08:29:56.000Z</time>
      </trkpt>
      <trkpt lat="43.20178" lon="6.67282">
        <ele>95.4</ele>
        <time>2024-06-17T08:30:09.000Z</time>
      </trkpt>
      <trkpt lat="43.20175" lon="6.67294">
        <ele>96.6</ele>
        <time>2024-06-17T08:30:22.000Z</time>
      </trkpt>
      <trkpt lat="43.2017" lon="6.67305">
        <ele>97.9</ele>
        <time>2024-06-17T08:30:37.000Z</time>
      </trkpt>
      <trkpt lat="43.20165" lon="6.67316">
        <ele>99.4</ele>
        <time>2024-06-17T08:30:52.000Z</time>
      </trkpt>
      <trkpt lat="43.20165" lon="6.67329">
        <ele>100.7</ele>
        <time>2024-06-17T08:31:12.000Z</time>
      </trkpt>
      <trkpt lat="43.20156" lon="6.67331">
        <ele>102.7</ele>
        <time>2024-06-17T08:31:28.000Z</time>
      </trkpt>
      <trkpt lat="43.20151" lon="6.6732">
        <ele>104.4</ele>
        <time>2024-06-17T08:31:48.000Z</time>
      </trkpt>
      <trkpt lat="43.20145" lon="6.67329">
        <ele>105.3</ele>
        <time>2024-06-17T08:32:11.000Z</time>
      </trkpt>
      <trkpt lat="43.20136" lon="6.67334">
        <ele>105</ele>
        <time>2024-06-17T08:32:30.000Z</time>
      </trkpt>
      <trkpt lat="43.2013" lon="6.67345">
        <ele>104.9</ele>
        <time>2024-06-17T08:32:42.000Z</time>
      </trkpt>
      <trkpt lat="43.20128" lon="6.67358">
        <ele>105.5</ele>
        <time>2024-06-17T08:32:53.000Z</time>
      </trkpt>
      <trkpt lat="43.20129" lon="6.6737">
        <ele>105.3</ele>
        <time>2024-06-17T08:33:03.000Z</time>
      </trkpt>
      <trkpt lat="43.20125" lon="6.67382">
        <ele>104.9</ele>
        <time>2024-06-17T08:35:23.000Z</time>
      </trkpt>
      <trkpt lat="43.20117" lon="6.67388">
        <ele>105.8</ele>
        <time>2024-06-17T08:35:53.000Z</time>
      </trkpt>
      <trkpt lat="43.20107" lon="6.67388">
        <ele>104.9</ele>
        <time>2024-06-17T08:36:50.000Z</time>
      </trkpt>
      <trkpt lat="43.20098" lon="6.6739">
        <ele>104.5</ele>
        <time>2024-06-17T08:37:00.000Z</time>
      </trkpt>
      <trkpt lat="43.201" lon="6.67403">
        <ele>104.7</ele>
        <time>2024-06-17T08:38:07.000Z</time>
      </trkpt>
      <trkpt lat="43.20107" lon="6.67395">
        <ele>105</ele>
        <time>2024-06-17T08:41:23.000Z</time>
      </trkpt>
      <trkpt lat="43.20116" lon="6.67393">
        <ele>105.5</ele>
        <time>2024-06-17T08:41:35.000Z</time>
      </trkpt>
      <trkpt lat="43.20125" lon="6.67395">
        <ele>104.9</ele>
        <time>2024-06-17T08:41:46.000Z</time>
      </trkpt>
      <trkpt lat="43.20128" lon="6.67408">
        <ele>104</ele>
        <time>2024-06-17T08:42:05.000Z</time>
      </trkpt>
      <trkpt lat="43.20134" lon="6.67417">
        <ele>103.7</ele>
        <time>2024-06-17T08:42:36.000Z</time>
      </trkpt>
      <trkpt lat="43.20133" lon="6.6743">
        <ele>103</ele>
        <time>2024-06-17T08:42:47.000Z</time>
      </trkpt>
      <trkpt lat="43.20136" lon="6.67441">
        <ele>101.2</ele>
        <time>2024-06-17T08:43:03.000Z</time>
      </trkpt>
      <trkpt lat="43.20135" lon="6.67454">
        <ele>100.6</ele>
        <time>2024-06-17T08:43:10.000Z</time>
      </trkpt>
      <trkpt lat="43.20135" lon="6.67466">
        <ele>99.6</ele>
        <time>2024-06-17T08:43:20.000Z</time>
      </trkpt>
      <trkpt lat="43.20136" lon="6.67479">
        <ele>98.6</ele>
        <time>2024-06-17T08:43:43.000Z</time>
      </trkpt>
      <trkpt lat="43.20139" lon="6.67491">
        <ele>98.1</ele>
        <time>2024-06-17T08:43:54.000Z</time>
      </trkpt>
      <trkpt lat="43.20146" lon="6.675">
        <ele>97.3</ele>
        <time>2024-06-17T08:44:06.000Z</time>
      </trkpt>
      <trkpt lat="43.20146" lon="6.67512">
        <ele>96.3</ele>
        <time>2024-06-17T08:44:17.000Z</time>
      </trkpt>
      <trkpt lat="43.20143" lon="6.67524">
        <ele>95.6</ele>
        <time>2024-06-17T08:44:27.000Z</time>
      </trkpt>
      <trkpt lat="43.20143" lon="6.67537">
        <ele>94.5</ele>
        <time>2024-06-17T08:44:37.000Z</time>
      </trkpt>
      <trkpt lat="43.20142" lon="6.67551">
        <ele>93</ele>
        <time>2024-06-17T08:44:48.000Z</time>
      </trkpt>
      <trkpt lat="43.20143" lon="6.67563">
        <ele>92.3</ele>
        <time>2024-06-17T08:44:59.000Z</time>
      </trkpt>
      <trkpt lat="43.20141" lon="6.67576">
        <ele>90.5</ele>
        <time>2024-06-17T08:45:10.000Z</time>
      </trkpt>
      <trkpt lat="43.20136" lon="6.67586">
        <ele>89.3</ele>
        <time>2024-06-17T08:45:22.000Z</time>
      </trkpt>
      <trkpt lat="43.20129" lon="6.67595">
        <ele>88.3</ele>
        <time>2024-06-17T08:45:34.000Z</time>
      </trkpt>
      <trkpt lat="43.20123" lon="6.67604">
        <ele>87.4</ele>
        <time>2024-06-17T08:45:45.000Z</time>
      </trkpt>
      <trkpt lat="43.20117" lon="6.67614">
        <ele>86.1</ele>
        <time>2024-06-17T08:45:56.000Z</time>
      </trkpt>
      <trkpt lat="43.20111" lon="6.67624">
        <ele>84.5</ele>
        <time>2024-06-17T08:46:07.000Z</time>
      </trkpt>
      <trkpt lat="43.20104" lon="6.67634">
        <ele>83.1</ele>
        <time>2024-06-17T08:46:17.000Z</time>
      </trkpt>
      <trkpt lat="43.201" lon="6.67645">
        <ele>81.8</ele>
        <time>2024-06-17T08:46:31.000Z</time>
      </trkpt>
      <trkpt lat="43.20099" lon="6.67658">
        <ele>80.7</ele>
        <time>2024-06-17T08:47:41.000Z</time>
      </trkpt>
      <trkpt lat="43.20102" lon="6.6767">
        <ele>80.1</ele>
        <time>2024-06-17T08:47:52.000Z</time>
      </trkpt>
      <trkpt lat="43.20095" lon="6.67678">
        <ele>79.1</ele>
        <time>2024-06-17T08:48:03.000Z</time>
      </trkpt>
      <trkpt lat="43.2009" lon="6.67689">
        <ele>77.6</ele>
        <time>2024-06-17T08:48:17.000Z</time>
      </trkpt>
      <trkpt lat="43.20086" lon="6.677">
        <ele>76.2</ele>
        <time>2024-06-17T08:48:41.000Z</time>
      </trkpt>
      <trkpt lat="43.20083" lon="6.67712">
        <ele>74.9</ele>
        <time>2024-06-17T08:48:52.000Z</time>
      </trkpt>
      <trkpt lat="43.20086" lon="6.67724">
        <ele>74.4</ele>
        <time>2024-06-17T08:49:04.000Z</time>
      </trkpt>
      <trkpt lat="43.20081" lon="6.67733">
        <ele>71.8</ele>
        <time>2024-06-17T08:49:25.000Z</time>
      </trkpt>
      <trkpt lat="43.20074" lon="6.67743">
        <ele>68.9</ele>
        <time>2024-06-17T08:49:42.000Z</time>
      </trkpt>
      <trkpt lat="43.20067" lon="6.67751">
        <ele>66.4</ele>
        <time>2024-06-17T08:50:00.000Z</time>
      </trkpt>
      <trkpt lat="43.2006" lon="6.6776">
        <ele>64.1</ele>
        <time>2024-06-17T08:50:18.000Z</time>
      </trkpt>
      <trkpt lat="43.20057" lon="6.67771">
        <ele>62.2</ele>
        <time>2024-06-17T08:50:31.000Z</time>
      </trkpt>
      <trkpt lat="43.20052" lon="6.67782">
        <ele>61</ele>
        <time>2024-06-17T08:50:45.000Z</time>
      </trkpt>
      <trkpt lat="43.20049" lon="6.67794">
        <ele>59.4</ele>
        <time>2024-06-17T08:51:10.000Z</time>
      </trkpt>
      <trkpt lat="43.20047" lon="6.67806">
        <ele>57.9</ele>
        <time>2024-06-17T08:51:23.000Z</time>
      </trkpt>
      <trkpt lat="43.20046" lon="6.67819">
        <ele>55.9</ele>
        <time>2024-06-17T08:51:37.000Z</time>
      </trkpt>
      <trkpt lat="43.20042" lon="6.6783">
        <ele>53.7</ele>
        <time>2024-06-17T08:52:08.000Z</time>
      </trkpt>
      <trkpt lat="43.2004" lon="6.67843">
        <ele>52</ele>
        <time>2024-06-17T08:52:21.000Z</time>
      </trkpt>
      <trkpt lat="43.20039" lon="6.67855">
        <ele>49.8</ele>
        <time>2024-06-17T08:52:36.000Z</time>
      </trkpt>
      <trkpt lat="43.20038" lon="6.67867">
        <ele>48.1</ele>
        <time>2024-06-17T08:52:51.000Z</time>
      </trkpt>
      <trkpt lat="43.20039" lon="6.6788">
        <ele>46</ele>
        <time>2024-06-17T08:53:08.000Z</time>
      </trkpt>
      <trkpt lat="43.20035" lon="6.67892">
        <ele>43.2</ele>
        <time>2024-06-17T08:53:22.000Z</time>
      </trkpt>
      <trkpt lat="43.20031" lon="6.67903">
        <ele>40.8</ele>
        <time>2024-06-17T08:53:44.000Z</time>
      </trkpt>
      <trkpt lat="43.20028" lon="6.67914">
        <ele>38</ele>
        <time>2024-06-17T08:54:22.000Z</time>
      </trkpt>
      <trkpt lat="43.20026" lon="6.67927">
        <ele>36.5</ele>
        <time>2024-06-17T08:54:35.000Z</time>
      </trkpt>
      <trkpt lat="43.20027" lon="6.67939">
        <ele>35.6</ele>
        <time>2024-06-17T08:54:46.000Z</time>
      </trkpt>
      <trkpt lat="43.20025" lon="6.67952">
        <ele>35.1</ele>
        <time>2024-06-17T08:54:57.000Z</time>
      </trkpt>
      <trkpt lat="43.20025" lon="6.67965">
        <ele>34.2</ele>
        <time>2024-06-17T08:55:09.000Z</time>
      </trkpt>
      <trkpt lat="43.20028" lon="6.67978">
        <ele>33.1</ele>
        <time>2024-06-17T08:55:48.000Z</time>
      </trkpt>
      <trkpt lat="43.20029" lon="6.6799">
        <ele>33.1</ele>
        <time>2024-06-17T08:57:12.000Z</time>
      </trkpt>
      <trkpt lat="43.20027" lon="6.68002">
        <ele>31.8</ele>
        <time>2024-06-17T08:57:42.000Z</time>
      </trkpt>
      <trkpt lat="43.20026" lon="6.68014">
        <ele>28.8</ele>
        <time>2024-06-17T08:59:03.000Z</time>
      </trkpt>
      <trkpt lat="43.20024" lon="6.68026">
        <ele>24.7</ele>
        <time>2024-06-17T08:59:43.000Z</time>
      </trkpt>
      <trkpt lat="43.20019" lon="6.68037">
        <ele>23.4</ele>
        <time>2024-06-17T09:00:02.000Z</time>
      </trkpt>
      <trkpt lat="43.20015" lon="6.68048">
        <ele>21.5</ele>
        <time>2024-06-17T09:00:25.000Z</time>
      </trkpt>
      <trkpt lat="43.20006" lon="6.68053">
        <ele>19.2</ele>
        <time>2024-06-17T09:00:38.000Z</time>
      </trkpt>
      <trkpt lat="43.2" lon="6.68044">
        <ele>19.5</ele>
        <time>2024-06-17T09:04:03.000Z</time>
      </trkpt>
      <trkpt lat="43.19991" lon="6.68046">
        <ele>17.5</ele>
        <time>2024-06-17T09:06:40.000Z</time>
      </trkpt>
      <trkpt lat="43.19982" lon="6.6805">
        <ele>14.5</ele>
        <time>2024-06-17T09:07:09.000Z</time>
      </trkpt>
      <trkpt lat="43.19974" lon="6.68045">
        <ele>13.1</ele>
        <time>2024-06-17T09:07:28.000Z</time>
      </trkpt>
      <trkpt lat="43.19971" lon="6.68032">
        <ele>12.5</ele>
        <time>2024-06-17T09:07:42.000Z</time>
      </trkpt>
      <trkpt lat="43.19969" lon="6.68019">
        <ele>13.4</ele>
        <time>2024-06-17T09:07:54.000Z</time>
      </trkpt>
      <trkpt lat="43.19962" lon="6.68011">
        <ele>11.4</ele>
        <time>2024-06-17T09:08:14.000Z</time>
      </trkpt>
      <trkpt lat="43.19958" lon="6.68">
        <ele>11.2</ele>
        <time>2024-06-17T09:08:27.000Z</time>
      </trkpt>
      <trkpt lat="43.19954" lon="6.67988">
        <ele>11</ele>
        <time>2024-06-17T09:08:39.000Z</time>
      </trkpt>
      <trkpt lat="43.1995" lon="6.67977">
        <ele>10.3</ele>
        <time>2024-06-17T09:08:53.000Z</time>
      </trkpt>
      <trkpt lat="43.19947" lon="6.67964">
        <ele>10.2</ele>
        <time>2024-06-17T09:09:06.000Z</time>
      </trkpt>
      <trkpt lat="43.19949" lon="6.67952">
        <ele>11.6</ele>
        <time>2024-06-17T09:09:22.000Z</time>
      </trkpt>
      <trkpt lat="43.19946" lon="6.67939">
        <ele>13</ele>
        <time>2024-06-17T09:09:31.000Z</time>
      </trkpt>
      <trkpt lat="43.19945" lon="6.67927">
        <ele>13.8</ele>
        <time>2024-06-17T09:09:44.000Z</time>
      </trkpt>
      <trkpt lat="43.19942" lon="6.67914">
        <ele>13.9</ele>
        <time>2024-06-17T09:09:55.000Z</time>
      </trkpt>
      <trkpt lat="43.19935" lon="6.67906">
        <ele>14.1</ele>
        <time>2024-06-17T09:10:10.000Z</time>
      </trkpt>
      <trkpt lat="43.1993" lon="6.67895">
        <ele>13.5</ele>
        <time>2024-06-17T09:10:23.000Z</time>
      </trkpt>
      <trkpt lat="43.19924" lon="6.67886">
        <ele>13.4</ele>
        <time>2024-06-17T09:10:32.000Z</time>
      </trkpt>
      <trkpt lat="43.19922" lon="6.67873">
        <ele>13.7</ele>
        <time>2024-06-17T09:10:42.000Z</time>
      </trkpt>
      <trkpt lat="43.19918" lon="6.67861">
        <ele>15.9</ele>
        <time>2024-06-17T09:10:59.000Z</time>
      </trkpt>
      <trkpt lat="43.19913" lon="6.67849">
        <ele>18.2</ele>
        <time>2024-06-17T09:11:14.000Z</time>
      </trkpt>
      <trkpt lat="43.19905" lon="6.67841">
        <ele>18.6</ele>
        <time>2024-06-17T09:11:38.000Z</time>
      </trkpt>
      <trkpt lat="43.19896" lon="6.67838">
        <ele>16.8</ele>
        <time>2024-06-17T09:12:05.000Z</time>
      </trkpt>
      <trkpt lat="43.19888" lon="6.67833">
        <ele>11.8</ele>
        <time>2024-06-17T09:12:47.000Z</time>
      </trkpt>
      <trkpt lat="43.19884" lon="6.67821">
        <ele>11.2</ele>
        <time>2024-06-17T09:13:03.000Z</time>
      </trkpt>
      <trkpt lat="43.19875" lon="6.67818">
        <ele>6.8</ele>
        <time>2024-06-17T09:13:34.000Z</time>
      </trkpt>
      <trkpt lat="43.19867" lon="6.67813">
        <ele>4.6</ele>
        <time>2024-06-17T09:13:56.000Z</time>
      </trkpt>
      <trkpt lat="43.19858" lon="6.67812">
        <ele>1.8</ele>
        <time>2024-06-17T09:14:20.000Z</time>
      </trkpt>
      <trkpt lat="43.19861" lon="6.67799">
        <ele>3.2</ele>
        <time>2024-06-17T09:14:51.000Z</time>
      </trkpt>
      <trkpt lat="43.19862" lon="6.67787">
        <ele>5.6</ele>
        <time>2024-06-17T09:15:12.000Z</time>
      </trkpt>
      <trkpt lat="43.19855" lon="6.67778">
        <ele>7.5</ele>
        <time>2024-06-17T09:15:25.000Z</time>
      </trkpt>
      <trkpt lat="43.19849" lon="6.67768">
        <ele>8.1</ele>
        <time>2024-06-17T09:15:48.000Z</time>
      </trkpt>
      <trkpt lat="43.19842" lon="6.67759">
        <ele>5.1</ele>
        <time>2024-06-17T09:16:16.000Z</time>
      </trkpt>
      <trkpt lat="43.19839" lon="6.67747">
        <ele>3.6</ele>
        <time>2024-06-17T09:16:34.000Z</time>
      </trkpt>
      <trkpt lat="43.19837" lon="6.67735">
        <ele>3.1</ele>
        <time>2024-06-17T09:16:45.000Z</time>
      </trkpt>
      <trkpt lat="43.19831" lon="6.67725">
        <ele>3.4</ele>
        <time>2024-06-17T09:16:58.000Z</time>
      </trkpt>
      <trkpt lat="43.19824" lon="6.67716">
        <ele>3.8</ele>
        <time>2024-06-17T09:17:18.000Z</time>
      </trkpt>
      <trkpt lat="43.1982" lon="6.67704">
        <ele>3.2</ele>
        <time>2024-06-17T09:17:32.000Z</time>
      </trkpt>
      <trkpt lat="43.19812" lon="6.67697">
        <ele>2.5</ele>
        <time>2024-06-17T09:17:42.000Z</time>
      </trkpt>
      <trkpt lat="43.19805" lon="6.67689">
        <ele>3.3</ele>
        <time>2024-06-17T09:18:01.000Z</time>
      </trkpt>
      <trkpt lat="43.19796" lon="6.67688">
        <ele>2</ele>
        <time>2024-06-17T09:18:33.000Z</time>
      </trkpt>
      <trkpt lat="43.19786" lon="6.67687">
        <ele>2.9</ele>
        <time>2024-06-17T09:18:53.000Z</time>
      </trkpt>
      <trkpt lat="43.19777" lon="6.67692">
        <ele>3.6</ele>
        <time>2024-06-17T09:19:07.000Z</time>
      </trkpt>
      <trkpt lat="43.19769" lon="6.67697">
        <ele>5</ele>
        <time>2024-06-17T09:19:24.000Z</time>
      </trkpt>
      <trkpt lat="43.1976" lon="6.67699">
        <ele>6.4</ele>
        <time>2024-06-17T09:19:37.000Z</time>
      </trkpt>
      <trkpt lat="43.1975" lon="6.67698">
        <ele>7.8</ele>
        <time>2024-06-17T09:19:51.000Z</time>
      </trkpt>
      <trkpt lat="43.1974" lon="6.67695">
        <ele>8.4</ele>
        <time>2024-06-17T09:19:59.000Z</time>
      </trkpt>
      <trkpt lat="43.19731" lon="6.67694">
        <ele>9.5</ele>
        <time>2024-06-17T09:20:13.000Z</time>
      </trkpt>
      <trkpt lat="43.19722" lon="6.67694">
        <ele>12.7</ele>
        <time>2024-06-17T09:20:54.000Z</time>
      </trkpt>
      <trkpt lat="43.19713" lon="6.67691">
        <ele>15</ele>
        <time>2024-06-17T09:21:21.000Z</time>
      </trkpt>
      <trkpt lat="43.19705" lon="6.67683">
        <ele>15.1</ele>
        <time>2024-06-17T09:21:32.000Z</time>
      </trkpt>
      <trkpt lat="43.19698" lon="6.67674">
        <ele>15.6</ele>
        <time>2024-06-17T09:21:43.000Z</time>
      </trkpt>
      <trkpt lat="43.19692" lon="6.67664">
        <ele>17.2</ele>
        <time>2024-06-17T09:21:57.000Z</time>
      </trkpt>
      <trkpt lat="43.19686" lon="6.67654">
        <ele>19.8</ele>
        <time>2024-06-17T09:22:13.000Z</time>
      </trkpt>
      <trkpt lat="43.1968" lon="6.67644">
        <ele>22</ele>
        <time>2024-06-17T09:22:36.000Z</time>
      </trkpt>
      <trkpt lat="43.19672" lon="6.67638">
        <ele>22.6</ele>
        <time>2024-06-17T09:22:46.000Z</time>
      </trkpt>
      <trkpt lat="43.19664" lon="6.67633">
        <ele>23.2</ele>
        <time>2024-06-17T09:22:57.000Z</time>
      </trkpt>
      <trkpt lat="43.19659" lon="6.67621">
        <ele>24.3</ele>
        <time>2024-06-17T09:23:12.000Z</time>
      </trkpt>
      <trkpt lat="43.19653" lon="6.67611">
        <ele>23</ele>
        <time>2024-06-17T09:23:28.000Z</time>
      </trkpt>
      <trkpt lat="43.19649" lon="6.676">
        <ele>21.1</ele>
        <time>2024-06-17T09:23:51.000Z</time>
      </trkpt>
      <trkpt lat="43.19644" lon="6.67589">
        <ele>21.2</ele>
        <time>2024-06-17T09:24:10.000Z</time>
      </trkpt>
      <trkpt lat="43.19635" lon="6.67585">
        <ele>20.5</ele>
        <time>2024-06-17T09:24:24.000Z</time>
      </trkpt>
      <trkpt lat="43.19628" lon="6.67578">
        <ele>20.3</ele>
        <time>2024-06-17T09:24:39.000Z</time>
      </trkpt>
      <trkpt lat="43.19619" lon="6.67576">
        <ele>17.8</ele>
        <time>2024-06-17T09:25:06.000Z</time>
      </trkpt>
      <trkpt lat="43.19611" lon="6.67568">
        <ele>16.3</ele>
        <time>2024-06-17T09:25:35.000Z</time>
      </trkpt>
      <trkpt lat="43.19611" lon="6.67555">
        <ele>17.1</ele>
        <time>2024-06-17T09:25:53.000Z</time>
      </trkpt>
      <trkpt lat="43.19611" lon="6.67543">
        <ele>15</ele>
        <time>2024-06-17T09:26:35.000Z</time>
      </trkpt>
      <trkpt lat="43.19615" lon="6.67531">
        <ele>14.1</ele>
        <time>2024-06-17T09:28:08.000Z</time>
      </trkpt>
      <trkpt lat="43.19617" lon="6.67519">
        <ele>14</ele>
        <time>2024-06-17T09:28:25.000Z</time>
      </trkpt>
      <trkpt lat="43.19618" lon="6.67506">
        <ele>12.3</ele>
        <time>2024-06-17T09:28:54.000Z</time>
      </trkpt>
      <trkpt lat="43.19621" lon="6.67493">
        <ele>10.9</ele>
        <time>2024-06-17T09:29:05.000Z</time>
      </trkpt>
      <trkpt lat="43.19629" lon="6.67485">
        <ele>10.5</ele>
        <time>2024-06-17T09:29:23.000Z</time>
      </trkpt>
      <trkpt lat="43.19637" lon="6.67479">
        <ele>11</ele>
        <time>2024-06-17T09:29:33.000Z</time>
      </trkpt>
      <trkpt lat="43.19646" lon="6.67476">
        <ele>11.5</ele>
        <time>2024-06-17T09:29:47.000Z</time>
      </trkpt>
      <trkpt lat="43.19652" lon="6.67466">
        <ele>11.3</ele>
        <time>2024-06-17T09:29:59.000Z</time>
      </trkpt>
      <trkpt lat="43.19661" lon="6.67461">
        <ele>10.4</ele>
        <time>2024-06-17T09:30:13.000Z</time>
      </trkpt>
      <trkpt lat="43.19669" lon="6.67455">
        <ele>9.8</ele>
        <time>2024-06-17T09:30:23.000Z</time>
      </trkpt>
      <trkpt lat="43.19677" lon="6.6745">
        <ele>9.2</ele>
        <time>2024-06-17T09:30:36.000Z</time>
      </trkpt>
      <trkpt lat="43.19685" lon="6.67442">
        <ele>6.9</ele>
        <time>2024-06-17T09:31:10.000Z</time>
      </trkpt>
      <trkpt lat="43.19694" lon="6.67438">
        <ele>5</ele>
        <time>2024-06-17T09:31:21.000Z</time>
      </trkpt>
      <trkpt lat="43.19703" lon="6.67434">
        <ele>4</ele>
        <time>2024-06-17T09:31:31.000Z</time>
      </trkpt>
      <trkpt lat="43.19705" lon="6.67421">
        <ele>3.6</ele>
        <time>2024-06-17T09:31:38.000Z</time>
      </trkpt>
      <trkpt lat="43.197" lon="6.6741">
        <ele>4.7</ele>
        <time>2024-06-17T09:31:53.000Z</time>
      </trkpt>
      <trkpt lat="43.19702" lon="6.67397">
        <ele>5.4</ele>
        <time>2024-06-17T09:32:21.000Z</time>
      </trkpt>
      <trkpt lat="43.19702" lon="6.67384">
        <ele>6.4</ele>
        <time>2024-06-17T09:32:32.000Z</time>
      </trkpt>
      <trkpt lat="43.19705" lon="6.67372">
        <ele>6.9</ele>
        <time>2024-06-17T09:32:45.000Z</time>
      </trkpt>
      <trkpt lat="43.19709" lon="6.67361">
        <ele>6.7</ele>
        <time>2024-06-17T09:32:56.000Z</time>
      </trkpt>
      <trkpt lat="43.19708" lon="6.67347">
        <ele>6.4</ele>
        <time>2024-06-17T09:33:06.000Z</time>
      </trkpt>
      <trkpt lat="43.19711" lon="6.67335">
        <ele>6.6</ele>
        <time>2024-06-17T09:33:26.000Z</time>
      </trkpt>
      <trkpt lat="43.19717" lon="6.67325">
        <ele>5.3</ele>
        <time>2024-06-17T09:33:40.000Z</time>
      </trkpt>
      <trkpt lat="43.19721" lon="6.67313">
        <ele>5</ele>
        <time>2024-06-17T09:33:51.000Z</time>
      </trkpt>
      <trkpt lat="43.19716" lon="6.67301">
        <ele>4.6</ele>
        <time>2024-06-17T09:34:09.000Z</time>
      </trkpt>
      <trkpt lat="43.19713" lon="6.67289">
        <ele>3.2</ele>
        <time>2024-06-17T09:34:31.000Z</time>
      </trkpt>
      <trkpt lat="43.19711" lon="6.67277">
        <ele>3</ele>
        <time>2024-06-17T09:35:16.000Z</time>
      </trkpt>
      <trkpt lat="43.19705" lon="6.67268">
        <ele>2.7</ele>
        <time>2024-06-17T09:35:42.000Z</time>
      </trkpt>
      <trkpt lat="43.19703" lon="6.67256">
        <ele>6.1</ele>
        <time>2024-06-17T09:36:34.000Z</time>
      </trkpt>
      <trkpt lat="43.197" lon="6.67243">
        <ele>6.9</ele>
        <time>2024-06-17T09:36:43.000Z</time>
      </trkpt>
      <trkpt lat="43.19701" lon="6.6723">
        <ele>8.9</ele>
        <time>2024-06-17T09:36:54.000Z</time>
      </trkpt>
      <trkpt lat="43.19696" lon="6.6722">
        <ele>8.9</ele>
        <time>2024-06-17T09:37:06.000Z</time>
      </trkpt>
      <trkpt lat="43.19694" lon="6.67207">
        <ele>7.8</ele>
        <time>2024-06-17T09:37:19.000Z</time>
      </trkpt>
      <trkpt lat="43.19694" lon="6.67194">
        <ele>8.3</ele>
        <time>2024-06-17T09:37:31.000Z</time>
      </trkpt>
      <trkpt lat="43.19693" lon="6.67181">
        <ele>9.7</ele>
        <time>2024-06-17T09:37:46.000Z</time>
      </trkpt>
      <trkpt lat="43.19696" lon="6.67169">
        <ele>11.1</ele>
        <time>2024-06-17T09:37:58.000Z</time>
      </trkpt>
      <trkpt lat="43.19693" lon="6.67157">
        <ele>13.2</ele>
        <time>2024-06-17T09:38:13.000Z</time>
      </trkpt>
      <trkpt lat="43.19689" lon="6.67146">
        <ele>13.5</ele>
        <time>2024-06-17T09:38:22.000Z</time>
      </trkpt>
      <trkpt lat="43.19682" lon="6.67136">
        <ele>14</ele>
        <time>2024-06-17T09:38:36.000Z</time>
      </trkpt>
      <trkpt lat="43.19675" lon="6.67128">
        <ele>13.2</ele>
        <time>2024-06-17T09:38:48.000Z</time>
      </trkpt>
      <trkpt lat="43.19675" lon="6.67115">
        <ele>12.5</ele>
        <time>2024-06-17T09:38:59.000Z</time>
      </trkpt>
      <trkpt lat="43.19678" lon="6.67103">
        <ele>12.6</ele>
        <time>2024-06-17T09:39:10.000Z</time>
      </trkpt>
      <trkpt lat="43.1968" lon="6.67091">
        <ele>12.7</ele>
        <time>2024-06-17T09:39:19.000Z</time>
      </trkpt>
      <trkpt lat="43.19681" lon="6.67078">
        <ele>13.3</ele>
        <time>2024-06-17T09:39:36.000Z</time>
      </trkpt>
      <trkpt lat="43.19686" lon="6.67065">
        <ele>13.5</ele>
        <time>2024-06-17T09:40:08.000Z</time>
      </trkpt>
      <trkpt lat="43.1969" lon="6.67055">
        <ele>13.5</ele>
        <time>2024-06-17T09:40:23.000Z</time>
      </trkpt>
      <trkpt lat="43.19687" lon="6.67042">
        <ele>12.1</ele>
        <time>2024-06-17T09:40:36.000Z</time>
      </trkpt>
      <trkpt lat="43.19681" lon="6.67033">
        <ele>10.6</ele>
        <time>2024-06-17T09:40:50.000Z</time>
      </trkpt>
      <trkpt lat="43.19674" lon="6.67021">
        <ele>8.9</ele>
        <time>2024-06-17T09:41:02.000Z</time>
      </trkpt>
      <trkpt lat="43.19668" lon="6.67011">
        <ele>6.3</ele>
        <time>2024-06-17T09:41:19.000Z</time>
      </trkpt>
      <trkpt lat="43.19659" lon="6.67007">
        <ele>5.4</ele>
        <time>2024-06-17T09:41:29.000Z</time>
      </trkpt>
      <trkpt lat="43.19653" lon="6.66997">
        <ele>5.9</ele>
        <time>2024-06-17T09:41:44.000Z</time>
      </trkpt>
      <trkpt lat="43.19652" lon="6.66984">
        <ele>7.3</ele>
        <time>2024-06-17T09:41:56.000Z</time>
      </trkpt>
      <trkpt lat="43.19646" lon="6.66973">
        <ele>7.9</ele>
        <time>2024-06-17T09:42:07.000Z</time>
      </trkpt>
      <trkpt lat="43.19638" lon="6.66966">
        <ele>8.1</ele>
        <time>2024-06-17T09:42:17.000Z</time>
      </trkpt>
      <trkpt lat="43.19629" lon="6.66968">
        <ele>8.1</ele>
        <time>2024-06-17T09:42:26.000Z</time>
      </trkpt>
      <trkpt lat="43.19619" lon="6.66968">
        <ele>8.1</ele>
        <time>2024-06-17T09:42:42.000Z</time>
      </trkpt>
      <trkpt lat="43.19612" lon="6.66961">
        <ele>9.9</ele>
        <time>2024-06-17T09:43:08.000Z</time>
      </trkpt>
      <trkpt lat="43.19603" lon="6.66958">
        <ele>10.1</ele>
        <time>2024-06-17T09:43:49.000Z</time>
      </trkpt>
      <trkpt lat="43.19594" lon="6.66951">
        <ele>8.2</ele>
        <time>2024-06-17T09:44:18.000Z</time>
      </trkpt>
      <trkpt lat="43.19586" lon="6.66945">
        <ele>7.1</ele>
        <time>2024-06-17T09:44:33.000Z</time>
      </trkpt>
      <trkpt lat="43.1958" lon="6.66936">
        <ele>7.5</ele>
        <time>2024-06-17T09:44:57.000Z</time>
      </trkpt>
      <trkpt lat="43.1958" lon="6.66922">
        <ele>8.1</ele>
        <time>2024-06-17T09:45:07.000Z</time>
      </trkpt>
      <trkpt lat="43.19582" lon="6.6691">
        <ele>9.1</ele>
        <time>2024-06-17T09:45:18.000Z</time>
      </trkpt>
      <trkpt lat="43.19586" lon="6.66898">
        <ele>9</ele>
        <time>2024-06-17T09:45:28.000Z</time>
      </trkpt>
      <trkpt lat="43.19586" lon="6.66886">
        <ele>8.9</ele>
        <time>2024-06-17T09:45:43.000Z</time>
      </trkpt>
      <trkpt lat="43.19585" lon="6.66873">
        <ele>9.3</ele>
        <time>2024-06-17T09:45:53.000Z</time>
      </trkpt>
      <trkpt lat="43.19587" lon="6.66861">
        <ele>9.7</ele>
        <time>2024-06-17T09:46:04.000Z</time>
      </trkpt>
      <trkpt lat="43.19593" lon="6.66851">
        <ele>9.8</ele>
        <time>2024-06-17T09:46:17.000Z</time>
      </trkpt>
      <trkpt lat="43.19598" lon="6.6684">
        <ele>9.7</ele>
        <time>2024-06-17T09:46:29.000Z</time>
      </trkpt>
      <trkpt lat="43.19604" lon="6.66831">
        <ele>11</ele>
        <time>2024-06-17T09:46:42.000Z</time>
      </trkpt>
      <trkpt lat="43.19612" lon="6.66824">
        <ele>12.5</ele>
        <time>2024-06-17T09:46:56.000Z</time>
      </trkpt>
      <trkpt lat="43.19613" lon="6.66811">
        <ele>11.5</ele>
        <time>2024-06-17T09:47:12.000Z</time>
      </trkpt>
      <trkpt lat="43.19609" lon="6.668">
        <ele>7.5</ele>
        <time>2024-06-17T09:47:46.000Z</time>
      </trkpt>
      <trkpt lat="43.19605" lon="6.66788">
        <ele>8.2</ele>
        <time>2024-06-17T09:48:05.000Z</time>
      </trkpt>
      <trkpt lat="43.19601" lon="6.66777">
        <ele>11</ele>
        <time>2024-06-17T09:48:26.000Z</time>
      </trkpt>
      <trkpt lat="43.19596" lon="6.66766">
        <ele>13.4</ele>
        <time>2024-06-17T09:48:56.000Z</time>
      </trkpt>
      <trkpt lat="43.19593" lon="6.66754">
        <ele>14.4</ele>
        <time>2024-06-17T09:49:09.000Z</time>
      </trkpt>
      <trkpt lat="43.19593" lon="6.66742">
        <ele>14.5</ele>
        <time>2024-06-17T09:49:20.000Z</time>
      </trkpt>
      <trkpt lat="43.19591" lon="6.6673">
        <ele>14.4</ele>
        <time>2024-06-17T09:49:35.000Z</time>
      </trkpt>
      <trkpt lat="43.19586" lon="6.66718">
        <ele>12.8</ele>
        <time>2024-06-17T09:50:17.000Z</time>
      </trkpt>
      <trkpt lat="43.19583" lon="6.66706">
        <ele>11.6</ele>
        <time>2024-06-17T09:50:45.000Z</time>
      </trkpt>
      <trkpt lat="43.19582" lon="6.66694">
        <ele>11.9</ele>
        <time>2024-06-17T09:51:05.000Z</time>
      </trkpt>
      <trkpt lat="43.19575" lon="6.66687">
        <ele>11.9</ele>
        <time>2024-06-17T09:51:20.000Z</time>
      </trkpt>
      <trkpt lat="43.19567" lon="6.6668">
        <ele>10</ele>
        <time>2024-06-17T09:51:30.000Z</time>
      </trkpt>
      <trkpt lat="43.19558" lon="6.66677">
        <ele>11</ele>
        <time>2024-06-17T09:51:47.000Z</time>
      </trkpt>
      <trkpt lat="43.19557" lon="6.66664">
        <ele>15.8</ele>
        <time>2024-06-17T09:52:34.000Z</time>
      </trkpt>
      <trkpt lat="43.19554" lon="6.66652">
        <ele>15.7</ele>
        <time>2024-06-17T09:52:55.000Z</time>
      </trkpt>
      <trkpt lat="43.19556" lon="6.6664">
        <ele>14.2</ele>
        <time>2024-06-17T09:53:18.000Z</time>
      </trkpt>
      <trkpt lat="43.19551" lon="6.66629">
        <ele>13.4</ele>
        <time>2024-06-17T09:53:55.000Z</time>
      </trkpt>
      <trkpt lat="43.19549" lon="6.66617">
        <ele>14.6</ele>
        <time>2024-06-17T09:54:13.000Z</time>
      </trkpt>
      <trkpt lat="43.1955" lon="6.66605">
        <ele>15.4</ele>
        <time>2024-06-17T09:54:29.000Z</time>
      </trkpt>
      <trkpt lat="43.19545" lon="6.66594">
        <ele>14.6</ele>
        <time>2024-06-17T09:54:52.000Z</time>
      </trkpt>
      <trkpt lat="43.19537" lon="6.66587">
        <ele>13.3</ele>
        <time>2024-06-17T09:55:16.000Z</time>
      </trkpt>
      <trkpt lat="43.19538" lon="6.66574">
        <ele>10.2</ele>
        <time>2024-06-17T09:55:59.000Z</time>
      </trkpt>
      <trkpt lat="43.19529" lon="6.66571">
        <ele>5.8</ele>
        <time>2024-06-17T09:56:32.000Z</time>
      </trkpt>
      <trkpt lat="43.19527" lon="6.66558">
        <ele>4.9</ele>
        <time>2024-06-17T09:57:00.000Z</time>
      </trkpt>
      <trkpt lat="43.19529" lon="6.66546">
        <ele>9.2</ele>
        <time>2024-06-17T09:57:40.000Z</time>
      </trkpt>
      <trkpt lat="43.19521" lon="6.6654">
        <ele>9.5</ele>
        <time>2024-06-17T09:58:13.000Z</time>
      </trkpt>
      <trkpt lat="43.19512" lon="6.66535">
        <ele>7.7</ele>
        <time>2024-06-17T09:58:57.000Z</time>
      </trkpt>
      <trkpt lat="43.19513" lon="6.66523">
        <ele>6.7</ele>
        <time>2024-06-17T09:59:12.000Z</time>
      </trkpt>
      <trkpt lat="43.19522" lon="6.66518">
        <ele>9.6</ele>
        <time>2024-06-17T09:59:39.000Z</time>
      </trkpt>
      <trkpt lat="43.19529" lon="6.6651">
        <ele>11.5</ele>
        <time>2024-06-17T09:59:55.000Z</time>
      </trkpt>
      <trkpt lat="43.19538" lon="6.66507">
        <ele>11.2</ele>
        <time>2024-06-17T10:02:21.000Z</time>
      </trkpt>
      <trkpt lat="43.19531" lon="6.66515">
        <ele>12</ele>
        <time>2024-06-17T10:37:21.000Z</time>
      </trkpt>
      <trkpt lat="43.19538" lon="6.66524">
        <ele>11.5</ele>
        <time>2024-06-17T10:39:49.000Z</time>
      </trkpt>
      <trkpt lat="43.19531" lon="6.66515">
        <ele>11.2</ele>
        <time>2024-06-17T10:41:08.000Z</time>
      </trkpt>
      <trkpt lat="43.19535" lon="6.66504">
        <ele>11.1</ele>
        <time>2024-06-17T10:49:16.000Z</time>
      </trkpt>
      <trkpt lat="43.19543" lon="6.66496">
        <ele>10.7</ele>
        <time>2024-06-17T10:49:30.000Z</time>
      </trkpt>
      <trkpt lat="43.19545" lon="6.66484">
        <ele>6.8</ele>
        <time>2024-06-17T10:50:06.000Z</time>
      </trkpt>
      <trkpt lat="43.19549" lon="6.66473">
        <ele>4.2</ele>
        <time>2024-06-17T10:50:26.000Z</time>
      </trkpt>
      <trkpt lat="43.19543" lon="6.66464">
        <ele>0.4</ele>
        <time>2024-06-17T10:51:04.000Z</time>
      </trkpt>
      <trkpt lat="43.19534" lon="6.66462">
        <ele>-2.4</ele>
        <time>2024-06-17T10:51:28.000Z</time>
      </trkpt>
      <trkpt lat="43.19525" lon="6.66458">
        <ele>-3.1</ele>
        <time>2024-06-17T10:51:59.000Z</time>
      </trkpt>
      <trkpt lat="43.19516" lon="6.66455">
        <ele>-3.8</ele>
        <time>2024-06-17T10:52:11.000Z</time>
      </trkpt>
      <trkpt lat="43.19511" lon="6.66445">
        <ele>-2.6</ele>
        <time>2024-06-17T10:52:43.000Z</time>
      </trkpt>
      <trkpt lat="43.19506" lon="6.66433">
        <ele>-3.3</ele>
        <time>2024-06-17T10:52:58.000Z</time>
      </trkpt>
      <trkpt lat="43.19512" lon="6.66424">
        <ele>-3.4</ele>
        <time>2024-06-17T10:53:11.000Z</time>
      </trkpt>
      <trkpt lat="43.19518" lon="6.66414">
        <ele>-1.2</ele>
        <time>2024-06-17T10:53:44.000Z</time>
      </trkpt>
      <trkpt lat="43.19513" lon="6.66424">
        <ele>-1.9</ele>
        <time>2024-06-17T10:54:15.000Z</time>
      </trkpt>
      <trkpt lat="43.19504" lon="6.66431">
        <ele>-3</ele>
        <time>2024-06-17T10:54:33.000Z</time>
      </trkpt>
      <trkpt lat="43.19498" lon="6.66422">
        <ele>-2.8</ele>
        <time>2024-06-17T10:54:50.000Z</time>
      </trkpt>
      <trkpt lat="43.19497" lon="6.66409">
        <ele>-2</ele>
        <time>2024-06-17T10:55:05.000Z</time>
      </trkpt>
      <trkpt lat="43.1949" lon="6.664">
        <ele>-0.9</ele>
        <time>2024-06-17T10:55:25.000Z</time>
      </trkpt>
      <trkpt lat="43.19494" lon="6.66388">
        <ele>2.2</ele>
        <time>2024-06-17T10:55:52.000Z</time>
      </trkpt>
      <trkpt lat="43.19503" lon="6.66386">
        <ele>9.1</ele>
        <time>2024-06-17T10:56:39.000Z</time>
      </trkpt>
      <trkpt lat="43.1951" lon="6.66378">
        <ele>12.2</ele>
        <time>2024-06-17T10:56:59.000Z</time>
      </trkpt>
      <trkpt lat="43.19514" lon="6.66367">
        <ele>12.6</ele>
        <time>2024-06-17T10:57:09.000Z</time>
      </trkpt>
      <trkpt lat="43.1952" lon="6.66357">
        <ele>12.7</ele>
        <time>2024-06-17T10:57:20.000Z</time>
      </trkpt>
      <trkpt lat="43.19528" lon="6.66349">
        <ele>12.9</ele>
        <time>2024-06-17T10:57:33.000Z</time>
      </trkpt>
      <trkpt lat="43.19537" lon="6.66345">
        <ele>13.2</ele>
        <time>2024-06-17T10:58:44.000Z</time>
      </trkpt>
      <trkpt lat="43.19539" lon="6.66333">
        <ele>13</ele>
        <time>2024-06-17T10:59:43.000Z</time>
      </trkpt>
      <trkpt lat="43.19548" lon="6.66327">
        <ele>14.2</ele>
        <time>2024-06-17T10:59:59.000Z</time>
      </trkpt>
      <trkpt lat="43.19556" lon="6.66321">
        <ele>16.3</ele>
        <time>2024-06-17T11:00:11.000Z</time>
      </trkpt>
      <trkpt lat="43.19562" lon="6.66312">
        <ele>16.8</ele>
        <time>2024-06-17T11:00:18.000Z</time>
      </trkpt>
      <trkpt lat="43.19568" lon="6.66301">
        <ele>17.1</ele>
        <time>2024-06-17T11:00:27.000Z</time>
      </trkpt>
      <trkpt lat="43.19567" lon="6.66288">
        <ele>17.4</ele>
        <time>2024-06-17T11:00:35.000Z</time>
      </trkpt>
      <trkpt lat="43.19567" lon="6.66276">
        <ele>16.2</ele>
        <time>2024-06-17T11:00:52.000Z</time>
      </trkpt>
      <trkpt lat="43.19568" lon="6.66263">
        <ele>15.2</ele>
        <time>2024-06-17T11:01:05.000Z</time>
      </trkpt>
      <trkpt lat="43.19569" lon="6.6625">
        <ele>14.7</ele>
        <time>2024-06-17T11:01:15.000Z</time>
      </trkpt>
      <trkpt lat="43.19568" lon="6.66238">
        <ele>13.9</ele>
        <time>2024-06-17T11:01:25.000Z</time>
      </trkpt>
      <trkpt lat="43.19572" lon="6.66226">
        <ele>12.4</ele>
        <time>2024-06-17T11:01:42.000Z</time>
      </trkpt>
      <trkpt lat="43.19578" lon="6.66216">
        <ele>11.2</ele>
        <time>2024-06-17T11:01:57.000Z</time>
      </trkpt>
      <trkpt lat="43.19583" lon="6.66205">
        <ele>9.2</ele>
        <time>2024-06-17T11:02:25.000Z</time>
      </trkpt>
      <trkpt lat="43.19583" lon="6.66192">
        <ele>6.9</ele>
        <time>2024-06-17T11:02:46.000Z</time>
      </trkpt>
      <trkpt lat="43.19589" lon="6.66182">
        <ele>5.2</ele>
        <time>2024-06-17T11:03:01.000Z</time>
      </trkpt>
      <trkpt lat="43.19597" lon="6.66175">
        <ele>4</ele>
        <time>2024-06-17T11:03:15.000Z</time>
      </trkpt>
      <trkpt lat="43.19603" lon="6.66165">
        <ele>5.9</ele>
        <time>2024-06-17T11:03:38.000Z</time>
      </trkpt>
      <trkpt lat="43.19608" lon="6.66155">
        <ele>8.5</ele>
        <time>2024-06-17T11:03:57.000Z</time>
      </trkpt>
      <trkpt lat="43.19617" lon="6.66152">
        <ele>10.7</ele>
        <time>2024-06-17T11:04:10.000Z</time>
      </trkpt>
      <trkpt lat="43.19627" lon="6.66148">
        <ele>13.2</ele>
        <time>2024-06-17T11:04:22.000Z</time>
      </trkpt>
      <trkpt lat="43.19637" lon="6.66146">
        <ele>16.6</ele>
        <time>2024-06-17T11:04:40.000Z</time>
      </trkpt>
      <trkpt lat="43.19645" lon="6.66139">
        <ele>19.1</ele>
        <time>2024-06-17T11:04:55.000Z</time>
      </trkpt>
      <trkpt lat="43.19652" lon="6.66131">
        <ele>19.6</ele>
        <time>2024-06-17T11:05:05.000Z</time>
      </trkpt>
      <trkpt lat="43.19661" lon="6.66133">
        <ele>23.3</ele>
        <time>2024-06-17T11:05:29.000Z</time>
      </trkpt>
      <trkpt lat="43.19659" lon="6.66145">
        <ele>24</ele>
        <time>2024-06-17T11:05:57.000Z</time>
      </trkpt>
      <trkpt lat="43.19656" lon="6.66157">
        <ele>23.5</ele>
        <time>2024-06-17T11:06:07.000Z</time>
      </trkpt>
      <trkpt lat="43.19652" lon="6.66169">
        <ele>23.6</ele>
        <time>2024-06-17T11:06:17.000Z</time>
      </trkpt>
      <trkpt lat="43.19655" lon="6.66156">
        <ele>24.4</ele>
        <time>2024-06-17T11:08:53.000Z</time>
      </trkpt>
      <trkpt lat="43.19657" lon="6.66144">
        <ele>24.6</ele>
        <time>2024-06-17T11:09:07.000Z</time>
      </trkpt>
      <trkpt lat="43.19662" lon="6.66134">
        <ele>24.6</ele>
        <time>2024-06-17T11:09:21.000Z</time>
      </trkpt>
      <trkpt lat="43.19667" lon="6.66123">
        <ele>24.6</ele>
        <time>2024-06-17T11:09:31.000Z</time>
      </trkpt>
      <trkpt lat="43.19672" lon="6.66111">
        <ele>24.6</ele>
        <time>2024-06-17T11:09:42.000Z</time>
      </trkpt>
      <trkpt lat="43.19678" lon="6.66101">
        <ele>24.7</ele>
        <time>2024-06-17T11:09:50.000Z</time>
      </trkpt>
      <trkpt lat="43.19686" lon="6.66093">
        <ele>24.9</ele>
        <time>2024-06-17T11:10:00.000Z</time>
      </trkpt>
      <trkpt lat="43.19691" lon="6.66082">
        <ele>25.3</ele>
        <time>2024-06-17T11:10:10.000Z</time>
      </trkpt>
      <trkpt lat="43.19691" lon="6.66068">
        <ele>25</ele>
        <time>2024-06-17T11:10:21.000Z</time>
      </trkpt>
      <trkpt lat="43.19696" lon="6.66058">
        <ele>26.5</ele>
        <time>2024-06-17T11:10:38.000Z</time>
      </trkpt>
      <trkpt lat="43.197" lon="6.66047">
        <ele>27</ele>
        <time>2024-06-17T11:11:01.000Z</time>
      </trkpt>
      <trkpt lat="43.19699" lon="6.66033">
        <ele>27.3</ele>
        <time>2024-06-17T11:11:24.000Z</time>
      </trkpt>
      <trkpt lat="43.19697" lon="6.6602">
        <ele>28</ele>
        <time>2024-06-17T11:11:38.000Z</time>
      </trkpt>
      <trkpt lat="43.19699" lon="6.66007">
        <ele>28.6</ele>
        <time>2024-06-17T11:12:03.000Z</time>
      </trkpt>
      <trkpt lat="43.19699" lon="6.65995">
        <ele>28.6</ele>
        <time>2024-06-17T11:12:13.000Z</time>
      </trkpt>
      <trkpt lat="43.19699" lon="6.65981">
        <ele>28.6</ele>
        <time>2024-06-17T11:12:24.000Z</time>
      </trkpt>
      <trkpt lat="43.19696" lon="6.65968">
        <ele>28.5</ele>
        <time>2024-06-17T11:12:35.000Z</time>
      </trkpt>
      <trkpt lat="43.19692" lon="6.65957">
        <ele>28.1</ele>
        <time>2024-06-17T11:12:45.000Z</time>
      </trkpt>
      <trkpt lat="43.19688" lon="6.65945">
        <ele>27.9</ele>
        <time>2024-06-17T11:12:56.000Z</time>
      </trkpt>
      <trkpt lat="43.19682" lon="6.65935">
        <ele>27.6</ele>
        <time>2024-06-17T11:13:06.000Z</time>
      </trkpt>
      <trkpt lat="43.19675" lon="6.65925">
        <ele>28</ele>
        <time>2024-06-17T11:13:18.000Z</time>
      </trkpt>
      <trkpt lat="43.1967" lon="6.65914">
        <ele>28.2</ele>
        <time>2024-06-17T11:13:27.000Z</time>
      </trkpt>
      <trkpt lat="43.19665" lon="6.65902">
        <ele>28.3</ele>
        <time>2024-06-17T11:13:38.000Z</time>
      </trkpt>
      <trkpt lat="43.1966" lon="6.65891">
        <ele>28.6</ele>
        <time>2024-06-17T11:13:48.000Z</time>
      </trkpt>
      <trkpt lat="43.19654" lon="6.6588">
        <ele>28.8</ele>
        <time>2024-06-17T11:13:59.000Z</time>
      </trkpt>
      <trkpt lat="43.19652" lon="6.65867">
        <ele>29</ele>
        <time>2024-06-17T11:14:08.000Z</time>
      </trkpt>
      <trkpt lat="43.1965" lon="6.65855">
        <ele>29.2</ele>
        <time>2024-06-17T11:14:17.000Z</time>
      </trkpt>
      <trkpt lat="43.19649" lon="6.65842">
        <ele>29.3</ele>
        <time>2024-06-17T11:14:27.000Z</time>
      </trkpt>
      <trkpt lat="43.19648" lon="6.65829">
        <ele>29.8</ele>
        <time>2024-06-17T11:14:37.000Z</time>
      </trkpt>
      <trkpt lat="43.19651" lon="6.65817">
        <ele>30.2</ele>
        <time>2024-06-17T11:14:46.000Z</time>
      </trkpt>
      <trkpt lat="43.19656" lon="6.65807">
        <ele>30.7</ele>
        <time>2024-06-17T11:14:56.000Z</time>
      </trkpt>
      <trkpt lat="43.19661" lon="6.65796">
        <ele>31.5</ele>
        <time>2024-06-17T11:15:07.000Z</time>
      </trkpt>
      <trkpt lat="43.19667" lon="6.65785">
        <ele>32.5</ele>
        <time>2024-06-17T11:15:17.000Z</time>
      </trkpt>
      <trkpt lat="43.19674" lon="6.65776">
        <ele>33.2</ele>
        <time>2024-06-17T11:15:27.000Z</time>
      </trkpt>
      <trkpt lat="43.19681" lon="6.65768">
        <ele>34.3</ele>
        <time>2024-06-17T11:15:37.000Z</time>
      </trkpt>
      <trkpt lat="43.19688" lon="6.65758">
        <ele>35.1</ele>
        <time>2024-06-17T11:15:47.000Z</time>
      </trkpt>
      <trkpt lat="43.19696" lon="6.6575">
        <ele>35.8</ele>
        <time>2024-06-17T11:15:57.000Z</time>
      </trkpt>
      <trkpt lat="43.19704" lon="6.65743">
        <ele>36.3</ele>
        <time>2024-06-17T11:16:07.000Z</time>
      </trkpt>
      <trkpt lat="43.19711" lon="6.65734">
        <ele>36.9</ele>
        <time>2024-06-17T11:16:17.000Z</time>
      </trkpt>
      <trkpt lat="43.19707" lon="6.65723">
        <ele>37.4</ele>
        <time>2024-06-17T11:16:33.000Z</time>
      </trkpt>
      <trkpt lat="43.197" lon="6.65715">
        <ele>37</ele>
        <time>2024-06-17T11:16:43.000Z</time>
      </trkpt>
      <trkpt lat="43.1969" lon="6.65712">
        <ele>36.4</ele>
        <time>2024-06-17T11:16:53.000Z</time>
      </trkpt>
      <trkpt lat="43.19681" lon="6.65707">
        <ele>36</ele>
        <time>2024-06-17T11:17:02.000Z</time>
      </trkpt>
      <trkpt lat="43.19673" lon="6.65701">
        <ele>35.9</ele>
        <time>2024-06-17T11:17:12.000Z</time>
      </trkpt>
      <trkpt lat="43.19664" lon="6.65696">
        <ele>35.6</ele>
        <time>2024-06-17T11:17:20.000Z</time>
      </trkpt>
      <trkpt lat="43.19657" lon="6.65688">
        <ele>35.5</ele>
        <time>2024-06-17T11:17:30.000Z</time>
      </trkpt>
      <trkpt lat="43.19652" lon="6.65676">
        <ele>35.5</ele>
        <time>2024-06-17T11:17:43.000Z</time>
      </trkpt>
      <trkpt lat="43.19642" lon="6.65671">
        <ele>35.3</ele>
        <time>2024-06-17T11:17:51.000Z</time>
      </trkpt>
      <trkpt lat="43.19634" lon="6.65676">
        <ele>35.2</ele>
        <time>2024-06-17T11:17:59.000Z</time>
      </trkpt>
      <trkpt lat="43.19627" lon="6.65684">
        <ele>34.7</ele>
        <time>2024-06-17T11:18:09.000Z</time>
      </trkpt>
      <trkpt lat="43.19619" lon="6.65691">
        <ele>34.3</ele>
        <time>2024-06-17T11:18:19.000Z</time>
      </trkpt>
      <trkpt lat="43.19611" lon="6.65697">
        <ele>33.8</ele>
        <time>2024-06-17T11:18:27.000Z</time>
      </trkpt>
      <trkpt lat="43.19602" lon="6.65701">
        <ele>33.3</ele>
        <time>2024-06-17T11:18:35.000Z</time>
      </trkpt>
      <trkpt lat="43.19593" lon="6.65705">
        <ele>33.1</ele>
        <time>2024-06-17T11:18:45.000Z</time>
      </trkpt>
      <trkpt lat="43.19584" lon="6.65708">
        <ele>32.9</ele>
        <time>2024-06-17T11:18:54.000Z</time>
      </trkpt>
      <trkpt lat="43.19575" lon="6.65705">
        <ele>32.7</ele>
        <time>2024-06-17T11:19:06.000Z</time>
      </trkpt>
      <trkpt lat="43.19567" lon="6.65698">
        <ele>32.4</ele>
        <time>2024-06-17T11:19:27.000Z</time>
      </trkpt>
      <trkpt lat="43.19561" lon="6.65688">
        <ele>32.4</ele>
        <time>2024-06-17T11:19:54.000Z</time>
      </trkpt>
      <trkpt lat="43.19556" lon="6.65679">
        <ele>32.2</ele>
        <time>2024-06-17T11:20:05.000Z</time>
      </trkpt>
      <trkpt lat="43.19549" lon="6.65668">
        <ele>32</ele>
        <time>2024-06-17T11:20:18.000Z</time>
      </trkpt>
      <trkpt lat="43.19543" lon="6.65658">
        <ele>32.1</ele>
        <time>2024-06-17T11:20:27.000Z</time>
      </trkpt>
      <trkpt lat="43.19537" lon="6.65649">
        <ele>32.3</ele>
        <time>2024-06-17T11:20:45.000Z</time>
      </trkpt>
      <trkpt lat="43.19532" lon="6.65637">
        <ele>32.3</ele>
        <time>2024-06-17T11:20:54.000Z</time>
      </trkpt>
      <trkpt lat="43.19529" lon="6.65626">
        <ele>32.6</ele>
        <time>2024-06-17T11:21:03.000Z</time>
      </trkpt>
      <trkpt lat="43.19526" lon="6.65613">
        <ele>32.6</ele>
        <time>2024-06-17T11:21:12.000Z</time>
      </trkpt>
      <trkpt lat="43.19524" lon="6.65601">
        <ele>32.7</ele>
        <time>2024-06-17T11:21:20.000Z</time>
      </trkpt>
      <trkpt lat="43.19522" lon="6.65589">
        <ele>32.8</ele>
        <time>2024-06-17T11:21:28.000Z</time>
      </trkpt>
      <trkpt lat="43.19521" lon="6.65576">
        <ele>33.1</ele>
        <time>2024-06-17T11:21:36.000Z</time>
      </trkpt>
      <trkpt lat="43.19522" lon="6.65563">
        <ele>33.2</ele>
        <time>2024-06-17T11:21:44.000Z</time>
      </trkpt>
      <trkpt lat="43.19525" lon="6.6555">
        <ele>33.3</ele>
        <time>2024-06-17T11:21:53.000Z</time>
      </trkpt>
      <trkpt lat="43.1953" lon="6.65539">
        <ele>33.3</ele>
        <time>2024-06-17T11:22:02.000Z</time>
      </trkpt>
      <trkpt lat="43.19535" lon="6.65529">
        <ele>33.5</ele>
        <time>2024-06-17T11:22:11.000Z</time>
      </trkpt>
      <trkpt lat="43.19542" lon="6.6552">
        <ele>33.6</ele>
        <time>2024-06-17T11:22:20.000Z</time>
      </trkpt>
      <trkpt lat="43.19548" lon="6.6551">
        <ele>33.8</ele>
        <time>2024-06-17T11:22:32.000Z</time>
      </trkpt>
      <trkpt lat="43.19552" lon="6.65499">
        <ele>34.2</ele>
        <time>2024-06-17T11:22:46.000Z</time>
      </trkpt>
      <trkpt lat="43.19552" lon="6.65487">
        <ele>34.8</ele>
        <time>2024-06-17T11:22:56.000Z</time>
      </trkpt>
      <trkpt lat="43.19548" lon="6.65476">
        <ele>35.3</ele>
        <time>2024-06-17T11:23:07.000Z</time>
      </trkpt>
      <trkpt lat="43.19541" lon="6.65466">
        <ele>36.2</ele>
        <time>2024-06-17T11:23:18.000Z</time>
      </trkpt>
      <trkpt lat="43.19538" lon="6.65454">
        <ele>37</ele>
        <time>2024-06-17T11:23:28.000Z</time>
      </trkpt>
      <trkpt lat="43.19536" lon="6.65441">
        <ele>37.8</ele>
        <time>2024-06-17T11:23:52.000Z</time>
      </trkpt>
      <trkpt lat="43.19537" lon="6.65428">
        <ele>38.2</ele>
        <time>2024-06-17T11:24:01.000Z</time>
      </trkpt>
      <trkpt lat="43.1954" lon="6.65417">
        <ele>39.1</ele>
        <time>2024-06-17T11:24:11.000Z</time>
      </trkpt>
      <trkpt lat="43.19546" lon="6.65406">
        <ele>39.6</ele>
        <time>2024-06-17T11:24:22.000Z</time>
      </trkpt>
      <trkpt lat="43.19552" lon="6.65397">
        <ele>39.9</ele>
        <time>2024-06-17T11:24:34.000Z</time>
      </trkpt>
      <trkpt lat="43.19557" lon="6.65386">
        <ele>40.9</ele>
        <time>2024-06-17T11:24:44.000Z</time>
      </trkpt>
      <trkpt lat="43.19564" lon="6.65377">
        <ele>41.1</ele>
        <time>2024-06-17T11:24:55.000Z</time>
      </trkpt>
      <trkpt lat="43.19569" lon="6.65365">
        <ele>41.6</ele>
        <time>2024-06-17T11:25:05.000Z</time>
      </trkpt>
      <trkpt lat="43.19569" lon="6.65352">
        <ele>42.3</ele>
        <time>2024-06-17T11:25:19.000Z</time>
      </trkpt>
      <trkpt lat="43.19568" lon="6.6534">
        <ele>42.5</ele>
        <time>2024-06-17T11:25:31.000Z</time>
      </trkpt>
      <trkpt lat="43.19565" lon="6.65328">
        <ele>42.9</ele>
        <time>2024-06-17T11:25:41.000Z</time>
      </trkpt>
      <trkpt lat="43.19565" lon="6.65314">
        <ele>43.2</ele>
        <time>2024-06-17T11:25:49.000Z</time>
      </trkpt>
      <trkpt lat="43.19567" lon="6.65302">
        <ele>43.5</ele>
        <time>2024-06-17T11:25:56.000Z</time>
      </trkpt>
      <trkpt lat="43.19572" lon="6.65291">
        <ele>43.8</ele>
        <time>2024-06-17T11:26:03.000Z</time>
      </trkpt>
      <trkpt lat="43.19579" lon="6.65281">
        <ele>44</ele>
        <time>2024-06-17T11:26:11.000Z</time>
      </trkpt>
      <trkpt lat="43.19586" lon="6.65272">
        <ele>44.4</ele>
        <time>2024-06-17T11:26:19.000Z</time>
      </trkpt>
      <trkpt lat="43.19593" lon="6.65263">
        <ele>44.5</ele>
        <time>2024-06-17T11:26:27.000Z</time>
      </trkpt>
      <trkpt lat="43.196" lon="6.65255">
        <ele>44.9</ele>
        <time>2024-06-17T11:26:39.000Z</time>
      </trkpt>
      <trkpt lat="43.19603" lon="6.65244">
        <ele>45.4</ele>
        <time>2024-06-17T11:26:53.000Z</time>
      </trkpt>
      <trkpt lat="43.19601" lon="6.65231">
        <ele>45.7</ele>
        <time>2024-06-17T11:32:38.000Z</time>
      </trkpt>
      <trkpt lat="43.19592" lon="6.65226">
        <ele>45.7</ele>
        <time>2024-06-17T11:32:48.000Z</time>
      </trkpt>
      <trkpt lat="43.19583" lon="6.65222">
        <ele>45.5</ele>
        <time>2024-06-17T11:32:58.000Z</time>
      </trkpt>
      <trkpt lat="43.19573" lon="6.6522">
        <ele>44.9</ele>
        <time>2024-06-17T11:33:07.000Z</time>
      </trkpt>
      <trkpt lat="43.19565" lon="6.65214">
        <ele>44.3</ele>
        <time>2024-06-17T11:33:16.000Z</time>
      </trkpt>
      <trkpt lat="43.19557" lon="6.65207">
        <ele>44</ele>
        <time>2024-06-17T11:33:26.000Z</time>
      </trkpt>
      <trkpt lat="43.1956" lon="6.65195">
        <ele>44.7</ele>
        <time>2024-06-17T11:33:42.000Z</time>
      </trkpt>
      <trkpt lat="43.19566" lon="6.65186">
        <ele>45.2</ele>
        <time>2024-06-17T11:33:52.000Z</time>
      </trkpt>
      <trkpt lat="43.1957" lon="6.65174">
        <ele>45.4</ele>
        <time>2024-06-17T11:34:01.000Z</time>
      </trkpt>
      <trkpt lat="43.19573" lon="6.65161">
        <ele>45.7</ele>
        <time>2024-06-17T11:34:10.000Z</time>
      </trkpt>
      <trkpt lat="43.1957" lon="6.65149">
        <ele>45.9</ele>
        <time>2024-06-17T11:34:19.000Z</time>
      </trkpt>
      <trkpt lat="43.19563" lon="6.65141">
        <ele>46.4</ele>
        <time>2024-06-17T11:34:28.000Z</time>
      </trkpt>
      <trkpt lat="43.19554" lon="6.65134">
        <ele>47.2</ele>
        <time>2024-06-17T11:34:38.000Z</time>
      </trkpt>
      <trkpt lat="43.19547" lon="6.65125">
        <ele>47.7</ele>
        <time>2024-06-17T11:34:47.000Z</time>
      </trkpt>
      <trkpt lat="43.19542" lon="6.65115">
        <ele>48.1</ele>
        <time>2024-06-17T11:34:56.000Z</time>
      </trkpt>
      <trkpt lat="43.1954" lon="6.65102">
        <ele>48.7</ele>
        <time>2024-06-17T11:35:06.000Z</time>
      </trkpt>
      <trkpt lat="43.19542" lon="6.65089">
        <ele>49.5</ele>
        <time>2024-06-17T11:35:24.000Z</time>
      </trkpt>
      <trkpt lat="43.19548" lon="6.65078">
        <ele>50.2</ele>
        <time>2024-06-17T11:35:34.000Z</time>
      </trkpt>
      <trkpt lat="43.19553" lon="6.65067">
        <ele>51.1</ele>
        <time>2024-06-17T11:35:44.000Z</time>
      </trkpt>
      <trkpt lat="43.19554" lon="6.65054">
        <ele>51.9</ele>
        <time>2024-06-17T11:35:53.000Z</time>
      </trkpt>
      <trkpt lat="43.19557" lon="6.65042">
        <ele>52.5</ele>
        <time>2024-06-17T11:36:02.000Z</time>
      </trkpt>
      <trkpt lat="43.1956" lon="6.6503">
        <ele>53.5</ele>
        <time>2024-06-17T11:36:12.000Z</time>
      </trkpt>
      <trkpt lat="43.1957" lon="6.65032">
        <ele>54.7</ele>
        <time>2024-06-17T11:36:25.000Z</time>
      </trkpt>
      <trkpt lat="43.19571" lon="6.65046">
        <ele>55.4</ele>
        <time>2024-06-17T11:36:35.000Z</time>
      </trkpt>
      <trkpt lat="43.19571" lon="6.65058">
        <ele>55.5</ele>
        <time>2024-06-17T11:36:43.000Z</time>
      </trkpt>
      <trkpt lat="43.1957" lon="6.65071">
        <ele>55.7</ele>
        <time>2024-06-17T11:36:52.000Z</time>
      </trkpt>
      <trkpt lat="43.1957" lon="6.65084">
        <ele>55.8</ele>
        <time>2024-06-17T11:37:01.000Z</time>
      </trkpt>
      <trkpt lat="43.19576" lon="6.65094">
        <ele>56.6</ele>
        <time>2024-06-17T11:37:13.000Z</time>
      </trkpt>
      <trkpt lat="43.19585" lon="6.65099">
        <ele>56.8</ele>
        <time>2024-06-17T11:37:23.000Z</time>
      </trkpt>
      <trkpt lat="43.19594" lon="6.65101">
        <ele>57.1</ele>
        <time>2024-06-17T11:37:33.000Z</time>
      </trkpt>
      <trkpt lat="43.19603" lon="6.65103">
        <ele>57.1</ele>
        <time>2024-06-17T11:37:42.000Z</time>
      </trkpt>
      <trkpt lat="43.19613" lon="6.65107">
        <ele>57.5</ele>
        <time>2024-06-17T11:37:51.000Z</time>
      </trkpt>
      <trkpt lat="43.19622" lon="6.65112">
        <ele>57.7</ele>
        <time>2024-06-17T11:38:00.000Z</time>
      </trkpt>
      <trkpt lat="43.19626" lon="6.65123">
        <ele>57.8</ele>
        <time>2024-06-17T11:38:09.000Z</time>
      </trkpt>
      <trkpt lat="43.19623" lon="6.65135">
        <ele>57.8</ele>
        <time>2024-06-17T11:38:17.000Z</time>
      </trkpt>
      <trkpt lat="43.19617" lon="6.65145">
        <ele>57.7</ele>
        <time>2024-06-17T11:38:26.000Z</time>
      </trkpt>
      <trkpt lat="43.19611" lon="6.65156">
        <ele>57.3</ele>
        <time>2024-06-17T11:38:36.000Z</time>
      </trkpt>
      <trkpt lat="43.19608" lon="6.65168">
        <ele>56.9</ele>
        <time>2024-06-17T11:38:45.000Z</time>
      </trkpt>
      <trkpt lat="43.19606" lon="6.65181">
        <ele>56.7</ele>
        <time>2024-06-17T11:38:55.000Z</time>
      </trkpt>
      <trkpt lat="43.19609" lon="6.65194">
        <ele>56.7</ele>
        <time>2024-06-17T11:39:05.000Z</time>
      </trkpt>
      <trkpt lat="43.19618" lon="6.65199">
        <ele>56.9</ele>
        <time>2024-06-17T11:39:15.000Z</time>
      </trkpt>
      <trkpt lat="43.19627" lon="6.65203">
        <ele>57.2</ele>
        <time>2024-06-17T11:39:25.000Z</time>
      </trkpt>
      <trkpt lat="43.19635" lon="6.65207">
        <ele>58.2</ele>
        <time>2024-06-17T11:39:35.000Z</time>
      </trkpt>
      <trkpt lat="43.19644" lon="6.65211">
        <ele>59.3</ele>
        <time>2024-06-17T11:39:46.000Z</time>
      </trkpt>
      <trkpt lat="43.19654" lon="6.65214">
        <ele>60.5</ele>
        <time>2024-06-17T11:39:58.000Z</time>
      </trkpt>
      <trkpt lat="43.19663" lon="6.65218">
        <ele>62.1</ele>
        <time>2024-06-17T11:40:09.000Z</time>
      </trkpt>
      <trkpt lat="43.19672" lon="6.65222">
        <ele>63.4</ele>
        <time>2024-06-17T11:40:19.000Z</time>
      </trkpt>
      <trkpt lat="43.19676" lon="6.65232">
        <ele>64.6</ele>
        <time>2024-06-17T11:41:29.000Z</time>
      </trkpt>
      <trkpt lat="43.19685" lon="6.65234">
        <ele>65.8</ele>
        <time>2024-06-17T11:43:37.000Z</time>
      </trkpt>
      <trkpt lat="43.19693" lon="6.65228">
        <ele>67</ele>
        <time>2024-06-17T11:43:47.000Z</time>
      </trkpt>
      <trkpt lat="43.19686" lon="6.65219">
        <ele>68.4</ele>
        <time>2024-06-17T11:44:01.000Z</time>
      </trkpt>
      <trkpt lat="43.19678" lon="6.65214">
        <ele>69.5</ele>
        <time>2024-06-17T11:44:10.000Z</time>
      </trkpt>
      <trkpt lat="43.19671" lon="6.65206">
        <ele>71.1</ele>
        <time>2024-06-17T11:44:30.000Z</time>
      </trkpt>
      <trkpt lat="43.19664" lon="6.65198">
        <ele>71.1</ele>
        <time>2024-06-17T11:44:45.000Z</time>
      </trkpt>
      <trkpt lat="43.19658" lon="6.65187">
        <ele>71.9</ele>
        <time>2024-06-17T11:44:59.000Z</time>
      </trkpt>
      <trkpt lat="43.19654" lon="6.65176">
        <ele>72.1</ele>
        <time>2024-06-17T11:45:08.000Z</time>
      </trkpt>
      <trkpt lat="43.19654" lon="6.65163">
        <ele>72.4</ele>
        <time>2024-06-17T11:45:18.000Z</time>
      </trkpt>
      <trkpt lat="43.19659" lon="6.65152">
        <ele>72.8</ele>
        <time>2024-06-17T11:45:27.000Z</time>
      </trkpt>
      <trkpt lat="43.19663" lon="6.6514">
        <ele>73</ele>
        <time>2024-06-17T11:45:36.000Z</time>
      </trkpt>
      <trkpt lat="43.19668" lon="6.65129">
        <ele>73.5</ele>
        <time>2024-06-17T11:45:45.000Z</time>
      </trkpt>
      <trkpt lat="43.1967" lon="6.65117">
        <ele>74.5</ele>
        <time>2024-06-17T11:45:54.000Z</time>
      </trkpt>
      <trkpt lat="43.19671" lon="6.65104">
        <ele>75.3</ele>
        <time>2024-06-17T11:46:03.000Z</time>
      </trkpt>
      <trkpt lat="43.19672" lon="6.65091">
        <ele>76.5</ele>
        <time>2024-06-17T11:46:13.000Z</time>
      </trkpt>
      <trkpt lat="43.19675" lon="6.65079">
        <ele>77.9</ele>
        <time>2024-06-17T11:46:24.000Z</time>
      </trkpt>
      <trkpt lat="43.19681" lon="6.65068">
        <ele>79.4</ele>
        <time>2024-06-17T11:46:35.000Z</time>
      </trkpt>
      <trkpt lat="43.19688" lon="6.6506">
        <ele>80.7</ele>
        <time>2024-06-17T11:46:46.000Z</time>
      </trkpt>
      <trkpt lat="43.19693" lon="6.6505">
        <ele>82.1</ele>
        <time>2024-06-17T11:46:58.000Z</time>
      </trkpt>
      <trkpt lat="43.19702" lon="6.65045">
        <ele>83.4</ele>
        <time>2024-06-17T11:48:40.000Z</time>
      </trkpt>
      <trkpt lat="43.19711" lon="6.65044">
        <ele>84.2</ele>
        <time>2024-06-17T11:48:52.000Z</time>
      </trkpt>
      <trkpt lat="43.19719" lon="6.65049">
        <ele>85.5</ele>
        <time>2024-06-17T11:49:03.000Z</time>
      </trkpt>
      <trkpt lat="43.19728" lon="6.65057">
        <ele>86.8</ele>
        <time>2024-06-17T11:49:14.000Z</time>
      </trkpt>
      <trkpt lat="43.19732" lon="6.65067">
        <ele>87.5</ele>
        <time>2024-06-17T11:49:24.000Z</time>
      </trkpt>
      <trkpt lat="43.19736" lon="6.6508">
        <ele>88.2</ele>
        <time>2024-06-17T11:49:35.000Z</time>
      </trkpt>
      <trkpt lat="43.1974" lon="6.65092">
        <ele>88.8</ele>
        <time>2024-06-17T11:49:45.000Z</time>
      </trkpt>
      <trkpt lat="43.19743" lon="6.65104">
        <ele>89.7</ele>
        <time>2024-06-17T11:49:55.000Z</time>
      </trkpt>
      <trkpt lat="43.19746" lon="6.65117">
        <ele>90.6</ele>
        <time>2024-06-17T11:50:09.000Z</time>
      </trkpt>
      <trkpt lat="43.19749" lon="6.6513">
        <ele>91.5</ele>
        <time>2024-06-17T11:50:20.000Z</time>
      </trkpt>
      <trkpt lat="43.19754" lon="6.65141">
        <ele>92.8</ele>
        <time>2024-06-17T11:50:31.000Z</time>
      </trkpt>
      <trkpt lat="43.1976" lon="6.6515">
        <ele>94.1</ele>
        <time>2024-06-17T11:50:48.000Z</time>
      </trkpt>
      <trkpt lat="43.19768" lon="6.65157">
        <ele>95.5</ele>
        <time>2024-06-17T11:52:18.000Z</time>
      </trkpt>
      <trkpt lat="43.19776" lon="6.65164">
        <ele>96.3</ele>
        <time>2024-06-17T11:52:27.000Z</time>
      </trkpt>
      <trkpt lat="43.19784" lon="6.6517">
        <ele>97.8</ele>
        <time>2024-06-17T11:52:38.000Z</time>
      </trkpt>
      <trkpt lat="43.19791" lon="6.65179">
        <ele>99.4</ele>
        <time>2024-06-17T11:52:55.000Z</time>
      </trkpt>
      <trkpt lat="43.19798" lon="6.65187">
        <ele>100.4</ele>
        <time>2024-06-17T11:53:06.000Z</time>
      </trkpt>
      <trkpt lat="43.19805" lon="6.65195">
        <ele>101.5</ele>
        <time>2024-06-17T11:53:16.000Z</time>
      </trkpt>
      <trkpt lat="43.19812" lon="6.65204">
        <ele>102.9</ele>
        <time>2024-06-17T11:53:33.000Z</time>
      </trkpt>
      <trkpt lat="43.19817" lon="6.65214">
        <ele>103.7</ele>
        <time>2024-06-17T11:53:45.000Z</time>
      </trkpt>
      <trkpt lat="43.19825" lon="6.65222">
        <ele>104.6</ele>
        <time>2024-06-17T11:53:55.000Z</time>
      </trkpt>
      <trkpt lat="43.19832" lon="6.6523">
        <ele>105.4</ele>
        <time>2024-06-17T11:54:06.000Z</time>
      </trkpt>
      <trkpt lat="43.19838" lon="6.65239">
        <ele>106.3</ele>
        <time>2024-06-17T11:54:18.000Z</time>
      </trkpt>
      <trkpt lat="43.19843" lon="6.6525">
        <ele>107.3</ele>
        <time>2024-06-17T11:54:26.000Z</time>
      </trkpt>
      <trkpt lat="43.19845" lon="6.65262">
        <ele>107.9</ele>
        <time>2024-06-17T11:55:02.000Z</time>
      </trkpt>
      <trkpt lat="43.1985" lon="6.65272">
        <ele>109.1</ele>
        <time>2024-06-17T11:58:34.000Z</time>
      </trkpt>
      <trkpt lat="43.19849" lon="6.65285">
        <ele>110.1</ele>
        <time>2024-06-17T11:58:46.000Z</time>
      </trkpt>
      <trkpt lat="43.19845" lon="6.65296">
        <ele>110.7</ele>
        <time>2024-06-17T11:58:55.000Z</time>
      </trkpt>
      <trkpt lat="43.1984" lon="6.65307">
        <ele>111.9</ele>
        <time>2024-06-17T11:59:05.000Z</time>
      </trkpt>
      <trkpt lat="43.19836" lon="6.65319">
        <ele>113.1</ele>
        <time>2024-06-17T11:59:15.000Z</time>
      </trkpt>
      <trkpt lat="43.19829" lon="6.6533">
        <ele>114.3</ele>
        <time>2024-06-17T11:59:28.000Z</time>
      </trkpt>
      <trkpt lat="43.19824" lon="6.6534">
        <ele>115.3</ele>
        <time>2024-06-17T11:59:39.000Z</time>
      </trkpt>
      <trkpt lat="43.19822" lon="6.65353">
        <ele>116.6</ele>
        <time>2024-06-17T11:59:50.000Z</time>
      </trkpt>
      <trkpt lat="43.19819" lon="6.65365">
        <ele>117.9</ele>
        <time>2024-06-17T12:00:01.000Z</time>
      </trkpt>
      <trkpt lat="43.19816" lon="6.65377">
        <ele>119.2</ele>
        <time>2024-06-17T12:00:13.000Z</time>
      </trkpt>
      <trkpt lat="43.19814" lon="6.65389">
        <ele>120.6</ele>
        <time>2024-06-17T12:00:24.000Z</time>
      </trkpt>
      <trkpt lat="43.19816" lon="6.65401">
        <ele>122.3</ele>
        <time>2024-06-17T12:00:38.000Z</time>
      </trkpt>
      <trkpt lat="43.19825" lon="6.65403">
        <ele>123.9</ele>
        <time>2024-06-17T12:00:52.000Z</time>
      </trkpt>
      <trkpt lat="43.19834" lon="6.65399">
        <ele>124.8</ele>
        <time>2024-06-17T12:01:05.000Z</time>
      </trkpt>
      <trkpt lat="43.19843" lon="6.65396">
        <ele>125.8</ele>
        <time>2024-06-17T12:01:16.000Z</time>
      </trkpt>
      <trkpt lat="43.19853" lon="6.65396">
        <ele>126.3</ele>
        <time>2024-06-17T12:01:25.000Z</time>
      </trkpt>
      <trkpt lat="43.19863" lon="6.65397">
        <ele>126.5</ele>
        <time>2024-06-17T12:01:37.000Z</time>
      </trkpt>
      <trkpt lat="43.19872" lon="6.65397">
        <ele>126.4</ele>
        <time>2024-06-17T12:01:46.000Z</time>
      </trkpt>
      <trkpt lat="43.19881" lon="6.65399">
        <ele>126.1</ele>
        <time>2024-06-17T12:02:42.000Z</time>
      </trkpt>
      <trkpt lat="43.1989" lon="6.65398">
        <ele>126.1</ele>
        <time>2024-06-17T12:05:47.000Z</time>
      </trkpt>
      <trkpt lat="43.199" lon="6.65399">
        <ele>126</ele>
        <time>2024-06-17T12:05:57.000Z</time>
      </trkpt>
      <trkpt lat="43.19909" lon="6.654">
        <ele>126.1</ele>
        <time>2024-06-17T12:06:12.000Z</time>
      </trkpt>
      <trkpt lat="43.19919" lon="6.654">
        <ele>126.4</ele>
        <time>2024-06-17T12:06:24.000Z</time>
      </trkpt>
      <trkpt lat="43.19928" lon="6.65404">
        <ele>126.8</ele>
        <time>2024-06-17T12:06:45.000Z</time>
      </trkpt>
      <trkpt lat="43.19937" lon="6.65407">
        <ele>127.1</ele>
        <time>2024-06-17T12:07:34.000Z</time>
      </trkpt>
      <trkpt lat="43.19946" lon="6.65415">
        <ele>127.3</ele>
        <time>2024-06-17T12:07:44.000Z</time>
      </trkpt>
      <trkpt lat="43.19952" lon="6.65424">
        <ele>126.9</ele>
        <time>2024-06-17T12:07:52.000Z</time>
      </trkpt>
      <trkpt lat="43.1996" lon="6.65432">
        <ele>126.3</ele>
        <time>2024-06-17T12:08:01.000Z</time>
      </trkpt>
      <trkpt lat="43.19966" lon="6.65443">
        <ele>125.6</ele>
        <time>2024-06-17T12:08:12.000Z</time>
      </trkpt>
      <trkpt lat="43.19972" lon="6.65452">
        <ele>124.6</ele>
        <time>2024-06-17T12:08:23.000Z</time>
      </trkpt>
      <trkpt lat="43.19978" lon="6.65462">
        <ele>123.5</ele>
        <time>2024-06-17T12:08:33.000Z</time>
      </trkpt>
      <trkpt lat="43.19984" lon="6.65474">
        <ele>122.3</ele>
        <time>2024-06-17T12:08:44.000Z</time>
      </trkpt>
      <trkpt lat="43.19989" lon="6.65484">
        <ele>121.7</ele>
        <time>2024-06-17T12:08:53.000Z</time>
      </trkpt>
      <trkpt lat="43.19995" lon="6.65494">
        <ele>121.6</ele>
        <time>2024-06-17T12:09:04.000Z</time>
      </trkpt>
      <trkpt lat="43.20002" lon="6.65503">
        <ele>121.2</ele>
        <time>2024-06-17T12:09:14.000Z</time>
      </trkpt>
      <trkpt lat="43.20011" lon="6.6551">
        <ele>120.7</ele>
        <time>2024-06-17T12:09:26.000Z</time>
      </trkpt>
      <trkpt lat="43.2002" lon="6.65515">
        <ele>120</ele>
        <time>2024-06-17T12:09:35.000Z</time>
      </trkpt>
      <trkpt lat="43.20029" lon="6.65518">
        <ele>119.4</ele>
        <time>2024-06-17T12:09:44.000Z</time>
      </trkpt>
      <trkpt lat="43.20039" lon="6.6552">
        <ele>118.6</ele>
        <time>2024-06-17T12:09:54.000Z</time>
      </trkpt>
      <trkpt lat="43.20047" lon="6.65526">
        <ele>118.2</ele>
        <time>2024-06-17T12:10:04.000Z</time>
      </trkpt>
      <trkpt lat="43.20055" lon="6.65533">
        <ele>117.8</ele>
        <time>2024-06-17T12:10:14.000Z</time>
      </trkpt>
      <trkpt lat="43.20063" lon="6.65541">
        <ele>117.5</ele>
        <time>2024-06-17T12:10:22.000Z</time>
      </trkpt>
      <trkpt lat="43.2007" lon="6.65549">
        <ele>116.9</ele>
        <time>2024-06-17T12:10:31.000Z</time>
      </trkpt>
      <trkpt lat="43.20077" lon="6.65557">
        <ele>116.2</ele>
        <time>2024-06-17T12:10:40.000Z</time>
      </trkpt>
      <trkpt lat="43.20082" lon="6.65567">
        <ele>115.4</ele>
        <time>2024-06-17T12:10:48.000Z</time>
      </trkpt>
      <trkpt lat="43.20088" lon="6.65578">
        <ele>114.3</ele>
        <time>2024-06-17T12:10:56.000Z</time>
      </trkpt>
      <trkpt lat="43.20094" lon="6.65588">
        <ele>113.5</ele>
        <time>2024-06-17T12:11:05.000Z</time>
      </trkpt>
      <trkpt lat="43.20101" lon="6.65598">
        <ele>112</ele>
        <time>2024-06-17T12:11:16.000Z</time>
      </trkpt>
      <trkpt lat="43.20106" lon="6.65608">
        <ele>111.2</ele>
        <time>2024-06-17T12:11:24.000Z</time>
      </trkpt>
      <trkpt lat="43.20114" lon="6.65615">
        <ele>110.6</ele>
        <time>2024-06-17T12:11:33.000Z</time>
      </trkpt>
      <trkpt lat="43.20123" lon="6.6562">
        <ele>109.2</ele>
        <time>2024-06-17T12:11:44.000Z</time>
      </trkpt>
      <trkpt lat="43.20132" lon="6.65625">
        <ele>108.3</ele>
        <time>2024-06-17T12:11:53.000Z</time>
      </trkpt>
      <trkpt lat="43.20142" lon="6.65627">
        <ele>108</ele>
        <time>2024-06-17T12:12:03.000Z</time>
      </trkpt>
      <trkpt lat="43.20152" lon="6.65626">
        <ele>106.8</ele>
        <time>2024-06-17T12:12:14.000Z</time>
      </trkpt>
      <trkpt lat="43.2016" lon="6.65632">
        <ele>105.3</ele>
        <time>2024-06-17T12:12:32.000Z</time>
      </trkpt>
      <trkpt lat="43.20168" lon="6.65637">
        <ele>104.3</ele>
        <time>2024-06-17T12:12:53.000Z</time>
      </trkpt>
      <trkpt lat="43.20178" lon="6.65641">
        <ele>103.5</ele>
        <time>2024-06-17T12:13:02.000Z</time>
      </trkpt>
      <trkpt lat="43.20186" lon="6.65645">
        <ele>102.4</ele>
        <time>2024-06-17T12:13:11.000Z</time>
      </trkpt>
      <trkpt lat="43.20196" lon="6.6565">
        <ele>101.5</ele>
        <time>2024-06-17T12:13:20.000Z</time>
      </trkpt>
      <trkpt lat="43.20204" lon="6.65654">
        <ele>100.5</ele>
        <time>2024-06-17T12:13:29.000Z</time>
      </trkpt>
      <trkpt lat="43.20213" lon="6.65659">
        <ele>99.7</ele>
        <time>2024-06-17T12:13:38.000Z</time>
      </trkpt>
      <trkpt lat="43.20222" lon="6.65663">
        <ele>99.4</ele>
        <time>2024-06-17T12:13:46.000Z</time>
      </trkpt>
      <trkpt lat="43.20231" lon="6.65669">
        <ele>99</ele>
        <time>2024-06-17T12:13:55.000Z</time>
      </trkpt>
      <trkpt lat="43.20239" lon="6.65677">
        <ele>98.8</ele>
        <time>2024-06-17T12:14:04.000Z</time>
      </trkpt>
      <trkpt lat="43.20245" lon="6.65688">
        <ele>98.4</ele>
        <time>2024-06-17T12:14:14.000Z</time>
      </trkpt>
      <trkpt lat="43.2025" lon="6.65698">
        <ele>97.6</ele>
        <time>2024-06-17T12:14:24.000Z</time>
      </trkpt>
      <trkpt lat="43.20255" lon="6.65709">
        <ele>96.8</ele>
        <time>2024-06-17T12:14:34.000Z</time>
      </trkpt>
      <trkpt lat="43.20261" lon="6.65719">
        <ele>96</ele>
        <time>2024-06-17T12:14:43.000Z</time>
      </trkpt>
      <trkpt lat="43.20267" lon="6.65729">
        <ele>95.4</ele>
        <time>2024-06-17T12:14:52.000Z</time>
      </trkpt>
      <trkpt lat="43.20272" lon="6.6574">
        <ele>94.3</ele>
        <time>2024-06-17T12:15:02.000Z</time>
      </trkpt>
      <trkpt lat="43.20278" lon="6.6575">
        <ele>93.4</ele>
        <time>2024-06-17T12:15:11.000Z</time>
      </trkpt>
      <trkpt lat="43.20284" lon="6.6576">
        <ele>92.8</ele>
        <time>2024-06-17T12:15:20.000Z</time>
      </trkpt>
      <trkpt lat="43.20289" lon="6.65771">
        <ele>92.3</ele>
        <time>2024-06-17T12:15:29.000Z</time>
      </trkpt>
      <trkpt lat="43.20294" lon="6.65782">
        <ele>91.6</ele>
        <time>2024-06-17T12:15:40.000Z</time>
      </trkpt>
      <trkpt lat="43.20296" lon="6.65794">
        <ele>90.1</ele>
        <time>2024-06-17T12:15:51.000Z</time>
      </trkpt>
      <trkpt lat="43.20299" lon="6.65807">
        <ele>89.2</ele>
        <time>2024-06-17T12:15:59.000Z</time>
      </trkpt>
      <trkpt lat="43.20302" lon="6.65819">
        <ele>88.2</ele>
        <time>2024-06-17T12:16:08.000Z</time>
      </trkpt>
      <trkpt lat="43.20307" lon="6.65831">
        <ele>87.3</ele>
        <time>2024-06-17T12:16:17.000Z</time>
      </trkpt>
      <trkpt lat="43.20313" lon="6.65842">
        <ele>86.6</ele>
        <time>2024-06-17T12:16:31.000Z</time>
      </trkpt>
      <trkpt lat="43.20319" lon="6.65851">
        <ele>86.3</ele>
        <time>2024-06-17T12:16:39.000Z</time>
      </trkpt>
      <trkpt lat="43.20327" lon="6.6586">
        <ele>85.9</ele>
        <time>2024-06-17T12:16:47.000Z</time>
      </trkpt>
      <trkpt lat="43.20335" lon="6.65867">
        <ele>85.6</ele>
        <time>2024-06-17T12:16:55.000Z</time>
      </trkpt>
      <trkpt lat="43.20342" lon="6.65874">
        <ele>85</ele>
        <time>2024-06-17T12:17:05.000Z</time>
      </trkpt>
      <trkpt lat="43.20349" lon="6.65883">
        <ele>84</ele>
        <time>2024-06-17T12:17:16.000Z</time>
      </trkpt>
      <trkpt lat="43.20358" lon="6.65889">
        <ele>83.3</ele>
        <time>2024-06-17T12:17:24.000Z</time>
      </trkpt>
      <trkpt lat="43.20365" lon="6.65898">
        <ele>82.1</ele>
        <time>2024-06-17T12:17:31.000Z</time>
      </trkpt>
      <trkpt lat="43.20373" lon="6.65905">
        <ele>81.3</ele>
        <time>2024-06-17T12:17:39.000Z</time>
      </trkpt>
      <trkpt lat="43.20382" lon="6.6591">
        <ele>80.5</ele>
        <time>2024-06-17T12:17:47.000Z</time>
      </trkpt>
      <trkpt lat="43.20391" lon="6.65915">
        <ele>79.8</ele>
        <time>2024-06-17T12:17:55.000Z</time>
      </trkpt>
      <trkpt lat="43.204" lon="6.65918">
        <ele>79.4</ele>
        <time>2024-06-17T12:18:04.000Z</time>
      </trkpt>
      <trkpt lat="43.20407" lon="6.65927">
        <ele>78.6</ele>
        <time>2024-06-17T12:18:14.000Z</time>
      </trkpt>
      <trkpt lat="43.2041" lon="6.65939">
        <ele>78</ele>
        <time>2024-06-17T12:18:26.000Z</time>
      </trkpt>
      <trkpt lat="43.2041" lon="6.65952">
        <ele>77.5</ele>
        <time>2024-06-17T12:18:36.000Z</time>
      </trkpt>
      <trkpt lat="43.2041" lon="6.65965">
        <ele>76.8</ele>
        <time>2024-06-17T12:18:45.000Z</time>
      </trkpt>
      <trkpt lat="43.2041" lon="6.65979">
        <ele>76.5</ele>
        <time>2024-06-17T12:18:54.000Z</time>
      </trkpt>
      <trkpt lat="43.20407" lon="6.65992">
        <ele>75.8</ele>
        <time>2024-06-17T12:19:03.000Z</time>
      </trkpt>
      <trkpt lat="43.20398" lon="6.65999">
        <ele>75.4</ele>
        <time>2024-06-17T12:19:13.000Z</time>
      </trkpt>
      <trkpt lat="43.2039" lon="6.66003">
        <ele>74.8</ele>
        <time>2024-06-17T12:19:22.000Z</time>
      </trkpt>
      <trkpt lat="43.20381" lon="6.66007">
        <ele>74.1</ele>
        <time>2024-06-17T12:19:31.000Z</time>
      </trkpt>
      <trkpt lat="43.20372" lon="6.66013">
        <ele>73.2</ele>
        <time>2024-06-17T12:19:40.000Z</time>
      </trkpt>
      <trkpt lat="43.20374" lon="6.66026">
        <ele>73.1</ele>
        <time>2024-06-17T12:19:59.000Z</time>
      </trkpt>
      <trkpt lat="43.20367" lon="6.66035">
        <ele>72.2</ele>
        <time>2024-06-17T12:20:09.000Z</time>
      </trkpt>
      <trkpt lat="43.20358" lon="6.66036">
        <ele>72</ele>
        <time>2024-06-17T12:20:18.000Z</time>
      </trkpt>
      <trkpt lat="43.20349" lon="6.66039">
        <ele>71.7</ele>
        <time>2024-06-17T12:20:27.000Z</time>
      </trkpt>
      <trkpt lat="43.20341" lon="6.66047">
        <ele>71.4</ele>
        <time>2024-06-17T12:20:36.000Z</time>
      </trkpt>
      <trkpt lat="43.20338" lon="6.66059">
        <ele>71.3</ele>
        <time>2024-06-17T12:20:46.000Z</time>
      </trkpt>
      <trkpt lat="43.20336" lon="6.66072">
        <ele>71.1</ele>
        <time>2024-06-17T12:20:55.000Z</time>
      </trkpt>
      <trkpt lat="43.20332" lon="6.66085">
        <ele>71.3</ele>
        <time>2024-06-17T12:21:04.000Z</time>
      </trkpt>
      <trkpt lat="43.20332" lon="6.66097">
        <ele>71.5</ele>
        <time>2024-06-17T12:21:13.000Z</time>
      </trkpt>
      <trkpt lat="43.20333" lon="6.6611">
        <ele>72.1</ele>
        <time>2024-06-17T12:21:23.000Z</time>
      </trkpt>
      <trkpt lat="43.20335" lon="6.66122">
        <ele>72.5</ele>
        <time>2024-06-17T12:21:32.000Z</time>
      </trkpt>
      <trkpt lat="43.20334" lon="6.66135">
        <ele>73.2</ele>
        <time>2024-06-17T12:21:41.000Z</time>
      </trkpt>
      <trkpt lat="43.2033" lon="6.66146">
        <ele>73.8</ele>
        <time>2024-06-17T12:21:51.000Z</time>
      </trkpt>
      <trkpt lat="43.20324" lon="6.66157">
        <ele>74.2</ele>
        <time>2024-06-17T12:22:02.000Z</time>
      </trkpt>
      <trkpt lat="43.20318" lon="6.66167">
        <ele>74.5</ele>
        <time>2024-06-17T12:22:11.000Z</time>
      </trkpt>
      <trkpt lat="43.20312" lon="6.66176">
        <ele>75.1</ele>
        <time>2024-06-17T12:22:20.000Z</time>
      </trkpt>
      <trkpt lat="43.20304" lon="6.66184">
        <ele>75.7</ele>
        <time>2024-06-17T12:22:29.000Z</time>
      </trkpt>
      <trkpt lat="43.20296" lon="6.6619">
        <ele>76.1</ele>
        <time>2024-06-17T12:22:37.000Z</time>
      </trkpt>
      <trkpt lat="43.20288" lon="6.66197">
        <ele>76.5</ele>
        <time>2024-06-17T12:22:45.000Z</time>
      </trkpt>
      <trkpt lat="43.20279" lon="6.66203">
        <ele>77.1</ele>
        <time>2024-06-17T12:22:54.000Z</time>
      </trkpt>
      <trkpt lat="43.2027" lon="6.66207">
        <ele>77.9</ele>
        <time>2024-06-17T12:23:03.000Z</time>
      </trkpt>
      <trkpt lat="43.20261" lon="6.66208">
        <ele>78.6</ele>
        <time>2024-06-17T12:23:11.000Z</time>
      </trkpt>
      <trkpt lat="43.20252" lon="6.66211">
        <ele>78.9</ele>
        <time>2024-06-17T12:23:19.000Z</time>
      </trkpt>
      <trkpt lat="43.20245" lon="6.6622">
        <ele>79.7</ele>
        <time>2024-06-17T12:23:29.000Z</time>
      </trkpt>
      <trkpt lat="43.20242" lon="6.66232">
        <ele>80</ele>
        <time>2024-06-17T12:23:42.000Z</time>
      </trkpt>
      <trkpt lat="43.20241" lon="6.66245">
        <ele>80.6</ele>
        <time>2024-06-17T12:23:52.000Z</time>
      </trkpt>
      <trkpt lat="43.20239" lon="6.66258">
        <ele>81.4</ele>
        <time>2024-06-17T12:24:01.000Z</time>
      </trkpt>
      <trkpt lat="43.20236" lon="6.6627">
        <ele>81.8</ele>
        <time>2024-06-17T12:24:10.000Z</time>
      </trkpt>
      <trkpt lat="43.2023" lon="6.6628">
        <ele>82.2</ele>
        <time>2024-06-17T12:24:20.000Z</time>
      </trkpt>
      <trkpt lat="43.20223" lon="6.66287">
        <ele>82.8</ele>
        <time>2024-06-17T12:24:37.000Z</time>
      </trkpt>
      <trkpt lat="43.20214" lon="6.6629">
        <ele>83.3</ele>
        <time>2024-06-17T12:25:08.000Z</time>
      </trkpt>
      <trkpt lat="43.20205" lon="6.66293">
        <ele>84</ele>
        <time>2024-06-17T12:25:19.000Z</time>
      </trkpt>
      <trkpt lat="43.20196" lon="6.66299">
        <ele>84.7</ele>
        <time>2024-06-17T12:25:33.000Z</time>
      </trkpt>
      <trkpt lat="43.20187" lon="6.66303">
        <ele>84.7</ele>
        <time>2024-06-17T12:25:42.000Z</time>
      </trkpt>
      <trkpt lat="43.20178" lon="6.66307">
        <ele>85.2</ele>
        <time>2024-06-17T12:25:50.000Z</time>
      </trkpt>
      <trkpt lat="43.20168" lon="6.66311">
        <ele>85.7</ele>
        <time>2024-06-17T12:25:59.000Z</time>
      </trkpt>
      <trkpt lat="43.2016" lon="6.66317">
        <ele>86.6</ele>
        <time>2024-06-17T12:26:07.000Z</time>
      </trkpt>
      <trkpt lat="43.2015" lon="6.66321">
        <ele>87.7</ele>
        <time>2024-06-17T12:26:16.000Z</time>
      </trkpt>
      <trkpt lat="43.20141" lon="6.66326">
        <ele>88.1</ele>
        <time>2024-06-17T12:26:25.000Z</time>
      </trkpt>
      <trkpt lat="43.20132" lon="6.66331">
        <ele>88.5</ele>
        <time>2024-06-17T12:26:34.000Z</time>
      </trkpt>
      <trkpt lat="43.20123" lon="6.66336">
        <ele>89.2</ele>
        <time>2024-06-17T12:26:43.000Z</time>
      </trkpt>
      <trkpt lat="43.20114" lon="6.66341">
        <ele>89.8</ele>
        <time>2024-06-17T12:26:51.000Z</time>
      </trkpt>
      <trkpt lat="43.20106" lon="6.66347">
        <ele>90.6</ele>
        <time>2024-06-17T12:26:59.000Z</time>
      </trkpt>
      <trkpt lat="43.20102" lon="6.6636">
        <ele>91.1</ele>
        <time>2024-06-17T12:27:08.000Z</time>
      </trkpt>
      <trkpt lat="43.20104" lon="6.66372">
        <ele>91.6</ele>
        <time>2024-06-17T12:27:17.000Z</time>
      </trkpt>
      <trkpt lat="43.20109" lon="6.66383">
        <ele>92.3</ele>
        <time>2024-06-17T12:27:44.000Z</time>
      </trkpt>
      <trkpt lat="43.20118" lon="6.66389">
        <ele>92.9</ele>
        <time>2024-06-17T12:27:54.000Z</time>
      </trkpt>
      <trkpt lat="43.20127" lon="6.66394">
        <ele>93.5</ele>
        <time>2024-06-17T12:28:02.000Z</time>
      </trkpt>
      <trkpt lat="43.20135" lon="6.66402">
        <ele>94.2</ele>
        <time>2024-06-17T12:28:11.000Z</time>
      </trkpt>
      <trkpt lat="43.20137" lon="6.66415">
        <ele>94.5</ele>
        <time>2024-06-17T12:28:19.000Z</time>
      </trkpt>
      <trkpt lat="43.20134" lon="6.66428">
        <ele>95.8</ele>
        <time>2024-06-17T12:29:16.000Z</time>
      </trkpt>
      <trkpt lat="43.20129" lon="6.66439">
        <ele>96.4</ele>
        <time>2024-06-17T12:29:24.000Z</time>
      </trkpt>
      <trkpt lat="43.20123" lon="6.66449">
        <ele>96.5</ele>
        <time>2024-06-17T12:29:32.000Z</time>
      </trkpt>
      <trkpt lat="43.20119" lon="6.6646">
        <ele>96.9</ele>
        <time>2024-06-17T12:29:39.000Z</time>
      </trkpt>
      <trkpt lat="43.20115" lon="6.66473">
        <ele>97.3</ele>
        <time>2024-06-17T12:29:47.000Z</time>
      </trkpt>
      <trkpt lat="43.20115" lon="6.66486">
        <ele>97.8</ele>
        <time>2024-06-17T12:29:55.000Z</time>
      </trkpt>
      <trkpt lat="43.20114" lon="6.66499">
        <ele>98.8</ele>
        <time>2024-06-17T12:30:03.000Z</time>
      </trkpt>
      <trkpt lat="43.20111" lon="6.66512">
        <ele>99.5</ele>
        <time>2024-06-17T12:30:12.000Z</time>
      </trkpt>
      <trkpt lat="43.20104" lon="6.66522">
        <ele>100.2</ele>
        <time>2024-06-17T12:30:21.000Z</time>
      </trkpt>
      <trkpt lat="43.20096" lon="6.66527">
        <ele>100.6</ele>
        <time>2024-06-17T12:30:29.000Z</time>
      </trkpt>
      <trkpt lat="43.20087" lon="6.66531">
        <ele>101.2</ele>
        <time>2024-06-17T12:30:37.000Z</time>
      </trkpt>
      <trkpt lat="43.20078" lon="6.66536">
        <ele>101.8</ele>
        <time>2024-06-17T12:30:45.000Z</time>
      </trkpt>
      <trkpt lat="43.2007" lon="6.66541">
        <ele>102.2</ele>
        <time>2024-06-17T12:30:53.000Z</time>
      </trkpt>
      <trkpt lat="43.20061" lon="6.66546">
        <ele>102.7</ele>
        <time>2024-06-17T12:31:01.000Z</time>
      </trkpt>
      <trkpt lat="43.20052" lon="6.66551">
        <ele>103.2</ele>
        <time>2024-06-17T12:31:09.000Z</time>
      </trkpt>
      <trkpt lat="43.20043" lon="6.66556">
        <ele>103.9</ele>
        <time>2024-06-17T12:31:17.000Z</time>
      </trkpt>
      <trkpt lat="43.20034" lon="6.66561">
        <ele>104.4</ele>
        <time>2024-06-17T12:31:25.000Z</time>
      </trkpt>
      <trkpt lat="43.20026" lon="6.66566">
        <ele>104.7</ele>
        <time>2024-06-17T12:31:33.000Z</time>
      </trkpt>
      <trkpt lat="43.20016" lon="6.66571">
        <ele>105.1</ele>
        <time>2024-06-17T12:31:42.000Z</time>
      </trkpt>
      <trkpt lat="43.20009" lon="6.66579">
        <ele>105.6</ele>
        <time>2024-06-17T12:31:50.000Z</time>
      </trkpt>
      <trkpt lat="43.20004" lon="6.66589">
        <ele>105.5</ele>
        <time>2024-06-17T12:31:58.000Z</time>
      </trkpt>
      <trkpt lat="43.20003" lon="6.66602">
        <ele>105.5</ele>
        <time>2024-06-17T12:32:06.000Z</time>
      </trkpt>
      <trkpt lat="43.20003" lon="6.66615">
        <ele>105.7</ele>
        <time>2024-06-17T12:32:15.000Z</time>
      </trkpt>
      <trkpt lat="43.20012" lon="6.6662">
        <ele>105.3</ele>
        <time>2024-06-17T12:32:30.000Z</time>
      </trkpt>
      <trkpt lat="43.20019" lon="6.66627">
        <ele>104.7</ele>
        <time>2024-06-17T12:37:29.000Z</time>
      </trkpt>
      <trkpt lat="43.20028" lon="6.66631">
        <ele>104.9</ele>
        <time>2024-06-17T12:37:41.000Z</time>
      </trkpt>
      <trkpt lat="43.20038" lon="6.66628">
        <ele>105.1</ele>
        <time>2024-06-17T12:37:53.000Z</time>
      </trkpt>
      <trkpt lat="43.20047" lon="6.66625">
        <ele>105.3</ele>
        <time>2024-06-17T12:38:03.000Z</time>
      </trkpt>
      <trkpt lat="43.20055" lon="6.66619">
        <ele>105.5</ele>
        <time>2024-06-17T12:38:13.000Z</time>
      </trkpt>
      <trkpt lat="43.20065" lon="6.66616">
        <ele>105.5</ele>
        <time>2024-06-17T12:38:23.000Z</time>
      </trkpt>
      <trkpt lat="43.20074" lon="6.66615">
        <ele>105.6</ele>
        <time>2024-06-17T12:38:32.000Z</time>
      </trkpt>
      <trkpt lat="43.20083" lon="6.66621">
        <ele>105.1</ele>
        <time>2024-06-17T12:38:41.000Z</time>
      </trkpt>
      <trkpt lat="43.20091" lon="6.66628">
        <ele>104.5</ele>
        <time>2024-06-17T12:38:50.000Z</time>
      </trkpt>
      <trkpt lat="43.20099" lon="6.66635">
        <ele>103.8</ele>
        <time>2024-06-17T12:39:00.000Z</time>
      </trkpt>
      <trkpt lat="43.20109" lon="6.66637">
        <ele>103</ele>
        <time>2024-06-17T12:39:10.000Z</time>
      </trkpt>
      <trkpt lat="43.20118" lon="6.66635">
        <ele>102.2</ele>
        <time>2024-06-17T12:39:19.000Z</time>
      </trkpt>
      <trkpt lat="43.20128" lon="6.66633">
        <ele>101.3</ele>
        <time>2024-06-17T12:39:28.000Z</time>
      </trkpt>
      <trkpt lat="43.20137" lon="6.66634">
        <ele>100.6</ele>
        <time>2024-06-17T12:39:36.000Z</time>
      </trkpt>
      <trkpt lat="43.20146" lon="6.66636">
        <ele>99.7</ele>
        <time>2024-06-17T12:39:45.000Z</time>
      </trkpt>
      <trkpt lat="43.20155" lon="6.66635">
        <ele>98.8</ele>
        <time>2024-06-17T12:39:54.000Z</time>
      </trkpt>
      <trkpt lat="43.20164" lon="6.6663">
        <ele>98.1</ele>
        <time>2024-06-17T12:40:03.000Z</time>
      </trkpt>
      <trkpt lat="43.20172" lon="6.66623">
        <ele>97.2</ele>
        <time>2024-06-17T12:40:12.000Z</time>
      </trkpt>
      <trkpt lat="43.2018" lon="6.66616">
        <ele>96.5</ele>
        <time>2024-06-17T12:40:21.000Z</time>
      </trkpt>
      <trkpt lat="43.20187" lon="6.66609">
        <ele>95.6</ele>
        <time>2024-06-17T12:40:30.000Z</time>
      </trkpt>
      <trkpt lat="43.20195" lon="6.66601">
        <ele>94.7</ele>
        <time>2024-06-17T12:40:40.000Z</time>
      </trkpt>
      <trkpt lat="43.20202" lon="6.66592">
        <ele>93.9</ele>
        <time>2024-06-17T12:40:50.000Z</time>
      </trkpt>
      <trkpt lat="43.2021" lon="6.66585">
        <ele>93</ele>
        <time>2024-06-17T12:40:59.000Z</time>
      </trkpt>
      <trkpt lat="43.20217" lon="6.66576">
        <ele>91.5</ele>
        <time>2024-06-17T12:41:09.000Z</time>
      </trkpt>
      <trkpt lat="43.20224" lon="6.66567">
        <ele>90.3</ele>
        <time>2024-06-17T12:41:19.000Z</time>
      </trkpt>
      <trkpt lat="43.20231" lon="6.66558">
        <ele>88.8</ele>
        <time>2024-06-17T12:41:29.000Z</time>
      </trkpt>
      <trkpt lat="43.2024" lon="6.66551">
        <ele>87.5</ele>
        <time>2024-06-17T12:41:39.000Z</time>
      </trkpt>
      <trkpt lat="43.20247" lon="6.66543">
        <ele>86.3</ele>
        <time>2024-06-17T12:41:48.000Z</time>
      </trkpt>
      <trkpt lat="43.20254" lon="6.66535">
        <ele>85.3</ele>
        <time>2024-06-17T12:41:57.000Z</time>
      </trkpt>
      <trkpt lat="43.2026" lon="6.66525">
        <ele>84.6</ele>
        <time>2024-06-17T12:42:06.000Z</time>
      </trkpt>
      <trkpt lat="43.20267" lon="6.66515">
        <ele>83.7</ele>
        <time>2024-06-17T12:42:15.000Z</time>
      </trkpt>
      <trkpt lat="43.20271" lon="6.66503">
        <ele>82.8</ele>
        <time>2024-06-17T12:42:26.000Z</time>
      </trkpt>
      <trkpt lat="43.20274" lon="6.66491">
        <ele>82.1</ele>
        <time>2024-06-17T12:42:34.000Z</time>
      </trkpt>
      <trkpt lat="43.20278" lon="6.6648">
        <ele>81.6</ele>
        <time>2024-06-17T12:42:42.000Z</time>
      </trkpt>
      <trkpt lat="43.20283" lon="6.66467">
        <ele>80.8</ele>
        <time>2024-06-17T12:42:51.000Z</time>
      </trkpt>
      <trkpt lat="43.20288" lon="6.66457">
        <ele>80.2</ele>
        <time>2024-06-17T12:42:59.000Z</time>
      </trkpt>
      <trkpt lat="43.20294" lon="6.66447">
        <ele>79.4</ele>
        <time>2024-06-17T12:43:07.000Z</time>
      </trkpt>
      <trkpt lat="43.20299" lon="6.66435">
        <ele>78.8</ele>
        <time>2024-06-17T12:43:16.000Z</time>
      </trkpt>
      <trkpt lat="43.20305" lon="6.66425">
        <ele>77.8</ele>
        <time>2024-06-17T12:43:25.000Z</time>
      </trkpt>
      <trkpt lat="43.20312" lon="6.66415">
        <ele>76.8</ele>
        <time>2024-06-17T12:43:34.000Z</time>
      </trkpt>
      <trkpt lat="43.20317" lon="6.66405">
        <ele>75.9</ele>
        <time>2024-06-17T12:43:42.000Z</time>
      </trkpt>
      <trkpt lat="43.20322" lon="6.66393">
        <ele>75.1</ele>
        <time>2024-06-17T12:43:51.000Z</time>
      </trkpt>
      <trkpt lat="43.20326" lon="6.66381">
        <ele>74</ele>
        <time>2024-06-17T12:44:00.000Z</time>
      </trkpt>
      <trkpt lat="43.20332" lon="6.6637">
        <ele>72.8</ele>
        <time>2024-06-17T12:44:09.000Z</time>
      </trkpt>
      <trkpt lat="43.20341" lon="6.66368">
        <ele>71.6</ele>
        <time>2024-06-17T12:44:18.000Z</time>
      </trkpt>
      <trkpt lat="43.20347" lon="6.66378">
        <ele>70</ele>
        <time>2024-06-17T12:44:28.000Z</time>
      </trkpt>
      <trkpt lat="43.2035" lon="6.66391">
        <ele>68.8</ele>
        <time>2024-06-17T12:44:38.000Z</time>
      </trkpt>
      <trkpt lat="43.20353" lon="6.66404">
        <ele>67.7</ele>
        <time>2024-06-17T12:44:47.000Z</time>
      </trkpt>
      <trkpt lat="43.20356" lon="6.66416">
        <ele>66.7</ele>
        <time>2024-06-17T12:44:56.000Z</time>
      </trkpt>
      <trkpt lat="43.20358" lon="6.66429">
        <ele>65.7</ele>
        <time>2024-06-17T12:45:05.000Z</time>
      </trkpt>
      <trkpt lat="43.20361" lon="6.66441">
        <ele>65.2</ele>
        <time>2024-06-17T12:45:13.000Z</time>
      </trkpt>
      <trkpt lat="43.20363" lon="6.66453">
        <ele>64.2</ele>
        <time>2024-06-17T12:45:22.000Z</time>
      </trkpt>
      <trkpt lat="43.20366" lon="6.66466">
        <ele>63.1</ele>
        <time>2024-06-17T12:45:33.000Z</time>
      </trkpt>
      <trkpt lat="43.20368" lon="6.66478">
        <ele>62.4</ele>
        <time>2024-06-17T12:45:42.000Z</time>
      </trkpt>
      <trkpt lat="43.2037" lon="6.66491">
        <ele>61.5</ele>
        <time>2024-06-17T12:45:51.000Z</time>
      </trkpt>
      <trkpt lat="43.20371" lon="6.66504">
        <ele>60.2</ele>
        <time>2024-06-17T12:46:00.000Z</time>
      </trkpt>
      <trkpt lat="43.2037" lon="6.66516">
        <ele>59.1</ele>
        <time>2024-06-17T12:46:09.000Z</time>
      </trkpt>
      <trkpt lat="43.20365" lon="6.66527">
        <ele>58.1</ele>
        <time>2024-06-17T12:46:17.000Z</time>
      </trkpt>
      <trkpt lat="43.20358" lon="6.66535">
        <ele>57.1</ele>
        <time>2024-06-17T12:46:27.000Z</time>
      </trkpt>
      <trkpt lat="43.20349" lon="6.66541">
        <ele>55.9</ele>
        <time>2024-06-17T12:46:37.000Z</time>
      </trkpt>
      <trkpt lat="43.20341" lon="6.66548">
        <ele>55.1</ele>
        <time>2024-06-17T12:46:46.000Z</time>
      </trkpt>
      <trkpt lat="43.20334" lon="6.66558">
        <ele>54</ele>
        <time>2024-06-17T12:46:56.000Z</time>
      </trkpt>
      <trkpt lat="43.20332" lon="6.66571">
        <ele>53.2</ele>
        <time>2024-06-17T12:47:05.000Z</time>
      </trkpt>
      <trkpt lat="43.20333" lon="6.66584">
        <ele>52.2</ele>
        <time>2024-06-17T12:47:14.000Z</time>
      </trkpt>
      <trkpt lat="43.20339" lon="6.66594">
        <ele>51.4</ele>
        <time>2024-06-17T12:47:22.000Z</time>
      </trkpt>
      <trkpt lat="43.20348" lon="6.66598">
        <ele>50.3</ele>
        <time>2024-06-17T12:47:30.000Z</time>
      </trkpt>
      <trkpt lat="43.20356" lon="6.66602">
        <ele>49.3</ele>
        <time>2024-06-17T12:47:39.000Z</time>
      </trkpt>
      <trkpt lat="43.20365" lon="6.66607">
        <ele>48.3</ele>
        <time>2024-06-17T12:47:48.000Z</time>
      </trkpt>
      <trkpt lat="43.20371" lon="6.66616">
        <ele>47.3</ele>
        <time>2024-06-17T12:47:56.000Z</time>
      </trkpt>
      <trkpt lat="43.20376" lon="6.66627">
        <ele>46.5</ele>
        <time>2024-06-17T12:48:04.000Z</time>
      </trkpt>
      <trkpt lat="43.20379" lon="6.66639">
        <ele>45.8</ele>
        <time>2024-06-17T12:48:12.000Z</time>
      </trkpt>
      <trkpt lat="43.2038" lon="6.66651">
        <ele>44.8</ele>
        <time>2024-06-17T12:48:22.000Z</time>
      </trkpt>
      <trkpt lat="43.20381" lon="6.66663">
        <ele>44.1</ele>
        <time>2024-06-17T12:48:31.000Z</time>
      </trkpt>
      <trkpt lat="43.2038" lon="6.66676">
        <ele>42.8</ele>
        <time>2024-06-17T12:48:40.000Z</time>
      </trkpt>
      <trkpt lat="43.20376" lon="6.66688">
        <ele>41.9</ele>
        <time>2024-06-17T12:48:51.000Z</time>
      </trkpt>
      <trkpt lat="43.20383" lon="6.66697">
        <ele>41</ele>
        <time>2024-06-17T12:49:01.000Z</time>
      </trkpt>
      <trkpt lat="43.20392" lon="6.66698">
        <ele>40.2</ele>
        <time>2024-06-17T12:49:10.000Z</time>
      </trkpt>
      <trkpt lat="43.20402" lon="6.667">
        <ele>39.5</ele>
        <time>2024-06-17T12:49:19.000Z</time>
      </trkpt>
      <trkpt lat="43.20411" lon="6.66702">
        <ele>38.8</ele>
        <time>2024-06-17T12:49:27.000Z</time>
      </trkpt>
      <trkpt lat="43.2042" lon="6.66704">
        <ele>37.7</ele>
        <time>2024-06-17T12:49:36.000Z</time>
      </trkpt>
      <trkpt lat="43.20429" lon="6.66709">
        <ele>36.8</ele>
        <time>2024-06-17T12:49:45.000Z</time>
      </trkpt>
      <trkpt lat="43.20435" lon="6.66718">
        <ele>36</ele>
        <time>2024-06-17T12:49:54.000Z</time>
      </trkpt>
      <trkpt lat="43.20439" lon="6.6673">
        <ele>35</ele>
        <time>2024-06-17T12:50:04.000Z</time>
      </trkpt>
      <trkpt lat="43.20437" lon="6.66743">
        <ele>33.7</ele>
        <time>2024-06-17T12:50:16.000Z</time>
      </trkpt>
      <trkpt lat="43.20431" lon="6.66754">
        <ele>32.8</ele>
        <time>2024-06-17T12:50:26.000Z</time>
      </trkpt>
      <trkpt lat="43.20429" lon="6.66766">
        <ele>31.5</ele>
        <time>2024-06-17T12:50:37.000Z</time>
      </trkpt>
      <trkpt lat="43.20425" lon="6.66777">
        <ele>30.3</ele>
        <time>2024-06-17T12:50:47.000Z</time>
      </trkpt>
      <trkpt lat="43.20424" lon="6.66791">
        <ele>29.3</ele>
        <time>2024-06-17T12:50:57.000Z</time>
      </trkpt>
      <trkpt lat="43.20424" lon="6.66804">
        <ele>28.5</ele>
        <time>2024-06-17T12:51:06.000Z</time>
      </trkpt>
      <trkpt lat="43.20434" lon="6.66806">
        <ele>27.4</ele>
        <time>2024-06-17T12:51:17.000Z</time>
      </trkpt>
      <trkpt lat="43.20443" lon="6.66803">
        <ele>26.5</ele>
        <time>2024-06-17T12:51:28.000Z</time>
      </trkpt>
      <trkpt lat="43.20451" lon="6.66797">
        <ele>25.4</ele>
        <time>2024-06-17T12:51:38.000Z</time>
      </trkpt>
      <trkpt lat="43.20461" lon="6.66792">
        <ele>24.6</ele>
        <time>2024-06-17T12:51:49.000Z</time>
      </trkpt>
      <trkpt lat="43.20469" lon="6.66789">
        <ele>23.7</ele>
        <time>2024-06-17T12:51:59.000Z</time>
      </trkpt>
      <trkpt lat="43.20479" lon="6.66787">
        <ele>22.4</ele>
        <time>2024-06-17T12:52:09.000Z</time>
      </trkpt>
      <trkpt lat="43.20488" lon="6.66784">
        <ele>21.3</ele>
        <time>2024-06-17T12:52:20.000Z</time>
      </trkpt>
      <trkpt lat="43.20497" lon="6.66786">
        <ele>20.2</ele>
        <time>2024-06-17T12:52:29.000Z</time>
      </trkpt>
      <trkpt lat="43.20505" lon="6.66793">
        <ele>19.7</ele>
        <time>2024-06-17T12:52:37.000Z</time>
      </trkpt>
      <trkpt lat="43.20511" lon="6.66803">
        <ele>19</ele>
        <time>2024-06-17T12:52:46.000Z</time>
      </trkpt>
      <trkpt lat="43.20516" lon="6.66813">
        <ele>17.7</ele>
        <time>2024-06-17T12:52:56.000Z</time>
      </trkpt>
      <trkpt lat="43.20521" lon="6.66825">
        <ele>16.3</ele>
        <time>2024-06-17T12:53:07.000Z</time>
      </trkpt>
      <trkpt lat="43.20527" lon="6.66836">
        <ele>15.1</ele>
        <time>2024-06-17T12:53:18.000Z</time>
      </trkpt>
      <trkpt lat="43.20534" lon="6.66845">
        <ele>13.4</ele>
        <time>2024-06-17T12:53:30.000Z</time>
      </trkpt>
      <trkpt lat="43.20542" lon="6.66853">
        <ele>12.5</ele>
        <time>2024-06-17T12:53:41.000Z</time>
      </trkpt>
      <trkpt lat="43.2055" lon="6.6686">
        <ele>12.1</ele>
        <time>2024-06-17T12:53:51.000Z</time>
      </trkpt>
      <trkpt lat="43.20556" lon="6.66869">
        <ele>11</ele>
        <time>2024-06-17T12:54:01.000Z</time>
      </trkpt>
      <trkpt lat="43.20564" lon="6.66877">
        <ele>9.6</ele>
        <time>2024-06-17T12:54:11.000Z</time>
      </trkpt>
      <trkpt lat="43.20571" lon="6.66886">
        <ele>8.2</ele>
        <time>2024-06-17T12:54:23.000Z</time>
      </trkpt>
      <trkpt lat="43.20576" lon="6.66897">
        <ele>7</ele>
        <time>2024-06-17T12:54:33.000Z</time>
      </trkpt>
      <trkpt lat="43.20581" lon="6.66907">
        <ele>6.2</ele>
        <time>2024-06-17T12:54:44.000Z</time>
      </trkpt>
      <trkpt lat="43.20586" lon="6.66919">
        <ele>5.3</ele>
        <time>2024-06-17T12:54:55.000Z</time>
      </trkpt>
      <trkpt lat="43.20592" lon="6.66929">
        <ele>4.5</ele>
        <time>2024-06-17T12:55:10.000Z</time>
      </trkpt>
      <trkpt lat="43.20595" lon="6.6694">
        <ele>4.3</ele>
        <time>2024-06-17T12:55:19.000Z</time>
      </trkpt>
      <trkpt lat="43.206" lon="6.66951">
        <ele>2.8</ele>
        <time>2024-06-17T12:56:04.000Z</time>
      </trkpt>
      <trkpt lat="43.20607" lon="6.66944">
        <ele>0.9</ele>
        <time>2024-06-17T12:56:24.000Z</time>
      </trkpt>
      <trkpt lat="43.20613" lon="6.66932">
        <ele>0.3</ele>
        <time>2024-06-17T12:56:37.000Z</time>
      </trkpt>
      <trkpt lat="43.20619" lon="6.66923">
        <ele>4</ele>
        <time>2024-06-17T12:56:47.000Z</time>
      </trkpt>
      <trkpt lat="43.20629" lon="6.6692">
        <ele>4</ele>
        <time>2024-06-17T12:56:59.000Z</time>
      </trkpt>
      <trkpt lat="43.20638" lon="6.66917">
        <ele>0.1</ele>
        <time>2024-06-17T12:57:13.000Z</time>
      </trkpt>
      <trkpt lat="43.20646" lon="6.66912">
        <ele>0.3</ele>
        <time>2024-06-17T12:57:24.000Z</time>
      </trkpt>
      <trkpt lat="43.20654" lon="6.66907">
        <ele>0.2</ele>
        <time>2024-06-17T12:57:36.000Z</time>
      </trkpt>
      <trkpt lat="43.20662" lon="6.669">
        <ele>4.9</ele>
        <time>2024-06-17T12:57:45.000Z</time>
      </trkpt>
      <trkpt lat="43.2067" lon="6.66893">
        <ele>-0.1</ele>
        <time>2024-06-17T12:57:54.000Z</time>
      </trkpt>
      <trkpt lat="43.20678" lon="6.66886">
        <ele>3.9</ele>
        <time>2024-06-17T12:58:04.000Z</time>
      </trkpt>
      <trkpt lat="43.20686" lon="6.66879">
        <ele>0.1</ele>
        <time>2024-06-17T12:58:12.000Z</time>
      </trkpt>
      <trkpt lat="43.20693" lon="6.66872">
        <ele>4.2</ele>
        <time>2024-06-17T12:58:21.000Z</time>
      </trkpt>
      <trkpt lat="43.207" lon="6.66864">
        <ele>-0.2</ele>
        <time>2024-06-17T12:58:30.000Z</time>
      </trkpt>
      <trkpt lat="43.20707" lon="6.66857">
        <ele>-0.3</ele>
        <time>2024-06-17T12:58:39.000Z</time>
      </trkpt>
      <trkpt lat="43.20714" lon="6.66848">
        <ele>4.6</ele>
        <time>2024-06-17T12:58:48.000Z</time>
      </trkpt>
      <trkpt lat="43.20722" lon="6.66841">
        <ele>4.6</ele>
        <time>2024-06-17T12:58:57.000Z</time>
      </trkpt>
      <trkpt lat="43.20731" lon="6.66836">
        <ele>-0.1</ele>
        <time>2024-06-17T12:59:06.000Z</time>
      </trkpt>
      <trkpt lat="43.20739" lon="6.6683">
        <ele>-0.7</ele>
        <time>2024-06-17T12:59:15.000Z</time>
      </trkpt>
      <trkpt lat="43.20746" lon="6.66822">
        <ele>0.2</ele>
        <time>2024-06-17T12:59:25.000Z</time>
      </trkpt>
      <trkpt lat="43.20753" lon="6.66814">
        <ele>0.5</ele>
        <time>2024-06-17T12:59:35.000Z</time>
      </trkpt>
      <trkpt lat="43.2076" lon="6.66806">
        <ele>0.7</ele>
        <time>2024-06-17T12:59:46.000Z</time>
      </trkpt>
      <trkpt lat="43.20765" lon="6.66794">
        <ele>-0.5</ele>
        <time>2024-06-17T12:59:57.000Z</time>
      </trkpt>
      <trkpt lat="43.20771" lon="6.66783">
        <ele>-1.6</ele>
        <time>2024-06-17T13:00:10.000Z</time>
      </trkpt>
      <trkpt lat="43.20778" lon="6.66775">
        <ele>-1.6</ele>
        <time>2024-06-17T13:00:20.000Z</time>
      </trkpt>
      <trkpt lat="43.20786" lon="6.6677">
        <ele>-1.8</ele>
        <time>2024-06-17T13:00:31.000Z</time>
      </trkpt>
      <trkpt lat="43.20796" lon="6.66766">
        <ele>-1.9</ele>
        <time>2024-06-17T13:00:42.000Z</time>
      </trkpt>
      <trkpt lat="43.20805" lon="6.66763">
        <ele>-1.5</ele>
        <time>2024-06-17T13:00:54.000Z</time>
      </trkpt>
      <trkpt lat="43.20814" lon="6.66762">
        <ele>-1.4</ele>
        <time>2024-06-17T13:01:05.000Z</time>
      </trkpt>
      <trkpt lat="43.20824" lon="6.66763">
        <ele>-1.4</ele>
        <time>2024-06-17T13:01:17.000Z</time>
      </trkpt>
      <trkpt lat="43.20833" lon="6.66766">
        <ele>-1.5</ele>
        <time>2024-06-17T13:01:28.000Z</time>
      </trkpt>
      <trkpt lat="43.2084" lon="6.66759">
        <ele>-1.4</ele>
        <time>2024-06-17T13:01:47.000Z</time>
      </trkpt>
      <trkpt lat="43.20843" lon="6.66747">
        <ele>-2.9</ele>
        <time>2024-06-17T13:06:36.000Z</time>
      </trkpt>
      <trkpt lat="43.2084" lon="6.66759">
        <ele>-1.2</ele>
        <time>2024-06-17T13:11:04.000Z</time>
      </trkpt>
      <trkpt lat="43.20849" lon="6.66764">
        <ele>-1.4</ele>
        <time>2024-06-17T13:11:15.000Z</time>
      </trkpt>
      <trkpt lat="43.20855" lon="6.66756">
        <ele>0.2</ele>
        <time>2024-06-17T13:11:39.000Z</time>
      </trkpt>
      <trkpt lat="43.20853" lon="6.66743">
        <ele>2</ele>
        <time>2024-06-17T13:11:53.000Z</time>
      </trkpt>
      <trkpt lat="43.20858" lon="6.66732">
        <ele>3.1</ele>
        <time>2024-06-17T13:12:06.000Z</time>
      </trkpt>
      <trkpt lat="43.20866" lon="6.66725">
        <ele>3.5</ele>
        <time>2024-06-17T13:12:19.000Z</time>
      </trkpt>
      <trkpt lat="43.20864" lon="6.66712">
        <ele>3.4</ele>
        <time>2024-06-17T13:12:29.000Z</time>
      </trkpt>
      <trkpt lat="43.20861" lon="6.66701">
        <ele>3.9</ele>
        <time>2024-06-17T13:12:37.000Z</time>
      </trkpt>
      <trkpt lat="43.20857" lon="6.66689">
        <ele>4.4</ele>
        <time>2024-06-17T13:12:46.000Z</time>
      </trkpt>
      <trkpt lat="43.20855" lon="6.66677">
        <ele>4.9</ele>
        <time>2024-06-17T13:12:54.000Z</time>
      </trkpt>
      <trkpt lat="43.20853" lon="6.66663">
        <ele>5.3</ele>
        <time>2024-06-17T13:13:05.000Z</time>
      </trkpt>
      <trkpt lat="43.20848" lon="6.66653">
        <ele>6</ele>
        <time>2024-06-17T13:13:13.000Z</time>
      </trkpt>
      <trkpt lat="43.20845" lon="6.66641">
        <ele>6.7</ele>
        <time>2024-06-17T13:13:22.000Z</time>
      </trkpt>
      <trkpt lat="43.20845" lon="6.66629">
        <ele>7.9</ele>
        <time>2024-06-17T13:13:30.000Z</time>
      </trkpt>
      <trkpt lat="43.20848" lon="6.66616">
        <ele>9.3</ele>
        <time>2024-06-17T13:13:39.000Z</time>
      </trkpt>
      <trkpt lat="43.20848" lon="6.66604">
        <ele>11.2</ele>
        <time>2024-06-17T13:14:01.000Z</time>
      </trkpt>
      <trkpt lat="43.20845" lon="6.66591">
        <ele>12.8</ele>
        <time>2024-06-17T13:14:13.000Z</time>
      </trkpt>
      <trkpt lat="43.20851" lon="6.6658">
        <ele>13.7</ele>
        <time>2024-06-17T13:14:22.000Z</time>
      </trkpt>
      <trkpt lat="43.20858" lon="6.6657">
        <ele>14.2</ele>
        <time>2024-06-17T13:14:29.000Z</time>
      </trkpt>
      <trkpt lat="43.20862" lon="6.66558">
        <ele>14.5</ele>
        <time>2024-06-17T13:14:39.000Z</time>
      </trkpt>
      <trkpt lat="43.20864" lon="6.66546">
        <ele>14.5</ele>
        <time>2024-06-17T13:14:46.000Z</time>
      </trkpt>
      <trkpt lat="43.20868" lon="6.66534">
        <ele>14.4</ele>
        <time>2024-06-17T13:14:55.000Z</time>
      </trkpt>
      <trkpt lat="43.20873" lon="6.66523">
        <ele>14.4</ele>
        <time>2024-06-17T13:15:03.000Z</time>
      </trkpt>
      <trkpt lat="43.20878" lon="6.66512">
        <ele>14.2</ele>
        <time>2024-06-17T13:15:11.000Z</time>
      </trkpt>
      <trkpt lat="43.20883" lon="6.66502">
        <ele>13.7</ele>
        <time>2024-06-17T13:15:19.000Z</time>
      </trkpt>
      <trkpt lat="43.20889" lon="6.66491">
        <ele>13.6</ele>
        <time>2024-06-17T13:15:28.000Z</time>
      </trkpt>
      <trkpt lat="43.20895" lon="6.66479">
        <ele>13.4</ele>
        <time>2024-06-17T13:15:36.000Z</time>
      </trkpt>
      <trkpt lat="43.20901" lon="6.66469">
        <ele>12.9</ele>
        <time>2024-06-17T13:15:45.000Z</time>
      </trkpt>
      <trkpt lat="43.20908" lon="6.66461">
        <ele>12.4</ele>
        <time>2024-06-17T13:15:55.000Z</time>
      </trkpt>
      <trkpt lat="43.20909" lon="6.66448">
        <ele>12</ele>
        <time>2024-06-17T13:16:14.000Z</time>
      </trkpt>
      <trkpt lat="43.20916" lon="6.66455">
        <ele>11.3</ele>
        <time>2024-06-17T13:18:32.000Z</time>
      </trkpt>
      <trkpt lat="43.20911" lon="6.66452">
        <ele>12</ele>
        <time>2024-06-17T13:22:28.000Z</time>
      </trkpt>
    </trkseg>
  </trk>
</gpx>